<?xml version="1.0" encoding="UTF-8" standalone="no" ?>
<gpx xmlns="http://www.topografix.com/GPX/1/1" xmlns:xsi="http://www.w3.org/2001/XMLSchema-instance" xsi:schemaLocation="http://www.topografix.com/GPX/1/1 http://www.topografix.com/GPX/1/1/gpx.xsd" version="1.1" creator="VisuGPX - https://www.visugpx.com">
  <metadata>
    <name>AIG. DES CALVAIRES</name>
    <desc><![CDATA[AIG. DES CALVAIRES
aravis]]></desc>
  </metadata>
  <trk>
    <name><![CDATA[aig des calvaires]]></name>
    <trkseg>
      <trkpt lat="45.90351" lon="6.42641">
        <ele>1101.6</ele>
        <time>2015-11-27T11:37:10Z</time>
      </trkpt>
      <trkpt lat="45.90354" lon="6.42643">
        <ele>1107.6</ele>
        <time>2015-11-27T11:37:11Z</time>
      </trkpt>
      <trkpt lat="45.90356" lon="6.42644">
        <ele>1098.6</ele>
        <time>2015-11-27T11:37:21Z</time>
      </trkpt>
      <trkpt lat="45.90358" lon="6.42643">
        <ele>1094.6</ele>
        <time>2015-11-27T11:37:31Z</time>
      </trkpt>
      <trkpt lat="45.90358" lon="6.42643">
        <ele>1094.6</ele>
        <time>2015-11-27T11:37:41Z</time>
      </trkpt>
      <trkpt lat="45.90358" lon="6.42644">
        <ele>1094.6</ele>
        <time>2015-11-27T11:37:51Z</time>
      </trkpt>
      <trkpt lat="45.90358" lon="6.42645">
        <ele>1094.6</ele>
        <time>2015-11-27T11:38:01Z</time>
      </trkpt>
      <trkpt lat="45.90345" lon="6.4264">
        <ele>1091.6</ele>
        <time>2015-11-27T11:38:11Z</time>
      </trkpt>
      <trkpt lat="45.90332" lon="6.42634">
        <ele>1097.6</ele>
        <time>2015-11-27T11:38:21Z</time>
      </trkpt>
      <trkpt lat="45.90318" lon="6.42626">
        <ele>1095.6</ele>
        <time>2015-11-27T11:38:31Z</time>
      </trkpt>
      <trkpt lat="45.9032" lon="6.42641">
        <ele>1096.6</ele>
        <time>2015-11-27T11:38:41Z</time>
      </trkpt>
      <trkpt lat="45.90324" lon="6.42653">
        <ele>1091.6</ele>
        <time>2015-11-27T11:38:51Z</time>
      </trkpt>
      <trkpt lat="45.90318" lon="6.42646">
        <ele>1091.6</ele>
        <time>2015-11-27T11:39:01Z</time>
      </trkpt>
      <trkpt lat="45.90312" lon="6.42646">
        <ele>1099.6</ele>
        <time>2015-11-27T11:39:11Z</time>
      </trkpt>
      <trkpt lat="45.90303" lon="6.42646">
        <ele>1102.6</ele>
        <time>2015-11-27T11:39:21Z</time>
      </trkpt>
      <trkpt lat="45.90293" lon="6.42634">
        <ele>1102.6</ele>
        <time>2015-11-27T11:39:31Z</time>
      </trkpt>
      <trkpt lat="45.90287" lon="6.4263">
        <ele>1104.6</ele>
        <time>2015-11-27T11:39:41Z</time>
      </trkpt>
      <trkpt lat="45.90288" lon="6.42629">
        <ele>1104.6</ele>
        <time>2015-11-27T11:39:51Z</time>
      </trkpt>
      <trkpt lat="45.90284" lon="6.4263">
        <ele>1103.6</ele>
        <time>2015-11-27T11:40:01Z</time>
      </trkpt>
      <trkpt lat="45.90274" lon="6.42632">
        <ele>1104.6</ele>
        <time>2015-11-27T11:40:11Z</time>
      </trkpt>
      <trkpt lat="45.90265" lon="6.42635">
        <ele>1108.6</ele>
        <time>2015-11-27T11:40:21Z</time>
      </trkpt>
      <trkpt lat="45.9026" lon="6.42642">
        <ele>1111.6</ele>
        <time>2015-11-27T11:40:31Z</time>
      </trkpt>
      <trkpt lat="45.90255" lon="6.42647">
        <ele>1113.6</ele>
        <time>2015-11-27T11:40:41Z</time>
      </trkpt>
      <trkpt lat="45.90255" lon="6.42659">
        <ele>1113.6</ele>
        <time>2015-11-27T11:40:51Z</time>
      </trkpt>
      <trkpt lat="45.90256" lon="6.42672">
        <ele>1116.6</ele>
        <time>2015-11-27T11:41:01Z</time>
      </trkpt>
      <trkpt lat="45.90257" lon="6.42683">
        <ele>1118.6</ele>
        <time>2015-11-27T11:41:11Z</time>
      </trkpt>
      <trkpt lat="45.90259" lon="6.42693">
        <ele>1120.6</ele>
        <time>2015-11-27T11:41:21Z</time>
      </trkpt>
      <trkpt lat="45.90261" lon="6.42702">
        <ele>1122.6</ele>
        <time>2015-11-27T11:41:31Z</time>
      </trkpt>
      <trkpt lat="45.90261" lon="6.42712">
        <ele>1123.6</ele>
        <time>2015-11-27T11:41:41Z</time>
      </trkpt>
      <trkpt lat="45.9026" lon="6.42721">
        <ele>1126.6</ele>
        <time>2015-11-27T11:41:51Z</time>
      </trkpt>
      <trkpt lat="45.90259" lon="6.42731">
        <ele>1128.6</ele>
        <time>2015-11-27T11:42:01Z</time>
      </trkpt>
      <trkpt lat="45.90258" lon="6.42741">
        <ele>1131.6</ele>
        <time>2015-11-27T11:42:11Z</time>
      </trkpt>
      <trkpt lat="45.90257" lon="6.42752">
        <ele>1132.6</ele>
        <time>2015-11-27T11:42:21Z</time>
      </trkpt>
      <trkpt lat="45.90256" lon="6.42762">
        <ele>1134.6</ele>
        <time>2015-11-27T11:42:31Z</time>
      </trkpt>
      <trkpt lat="45.90255" lon="6.42773">
        <ele>1135.6</ele>
        <time>2015-11-27T11:42:41Z</time>
      </trkpt>
      <trkpt lat="45.90256" lon="6.42783">
        <ele>1137.6</ele>
        <time>2015-11-27T11:42:51Z</time>
      </trkpt>
      <trkpt lat="45.90255" lon="6.42793">
        <ele>1139.6</ele>
        <time>2015-11-27T11:43:01Z</time>
      </trkpt>
      <trkpt lat="45.90255" lon="6.42803">
        <ele>1141.6</ele>
        <time>2015-11-27T11:43:11Z</time>
      </trkpt>
      <trkpt lat="45.90255" lon="6.42813">
        <ele>1143.6</ele>
        <time>2015-11-27T11:43:21Z</time>
      </trkpt>
      <trkpt lat="45.90254" lon="6.42821">
        <ele>1144.6</ele>
        <time>2015-11-27T11:43:31Z</time>
      </trkpt>
      <trkpt lat="45.90253" lon="6.4283">
        <ele>1145.6</ele>
        <time>2015-11-27T11:43:41Z</time>
      </trkpt>
      <trkpt lat="45.90253" lon="6.4284">
        <ele>1147.6</ele>
        <time>2015-11-27T11:43:51Z</time>
      </trkpt>
      <trkpt lat="45.90251" lon="6.42851">
        <ele>1148.6</ele>
        <time>2015-11-27T11:44:01Z</time>
      </trkpt>
      <trkpt lat="45.90248" lon="6.42861">
        <ele>1150.6</ele>
        <time>2015-11-27T11:44:11Z</time>
      </trkpt>
      <trkpt lat="45.90244" lon="6.42868">
        <ele>1151.6</ele>
        <time>2015-11-27T11:44:21Z</time>
      </trkpt>
      <trkpt lat="45.9024" lon="6.42875">
        <ele>1150.6</ele>
        <time>2015-11-27T11:44:31Z</time>
      </trkpt>
      <trkpt lat="45.90238" lon="6.42883">
        <ele>1154.6</ele>
        <time>2015-11-27T11:44:41Z</time>
      </trkpt>
      <trkpt lat="45.90234" lon="6.42891">
        <ele>1156.6</ele>
        <time>2015-11-27T11:44:51Z</time>
      </trkpt>
      <trkpt lat="45.9023" lon="6.42899">
        <ele>1158.6</ele>
        <time>2015-11-27T11:45:01Z</time>
      </trkpt>
      <trkpt lat="45.90226" lon="6.42908">
        <ele>1159.6</ele>
        <time>2015-11-27T11:45:11Z</time>
      </trkpt>
      <trkpt lat="45.90223" lon="6.42916">
        <ele>1161.6</ele>
        <time>2015-11-27T11:45:21Z</time>
      </trkpt>
      <trkpt lat="45.9022" lon="6.42924">
        <ele>1162.6</ele>
        <time>2015-11-27T11:45:31Z</time>
      </trkpt>
      <trkpt lat="45.90216" lon="6.42932">
        <ele>1164.6</ele>
        <time>2015-11-27T11:45:41Z</time>
      </trkpt>
      <trkpt lat="45.90213" lon="6.42939">
        <ele>1165.6</ele>
        <time>2015-11-27T11:45:51Z</time>
      </trkpt>
      <trkpt lat="45.9021" lon="6.42946">
        <ele>1166.6</ele>
        <time>2015-11-27T11:46:01Z</time>
      </trkpt>
      <trkpt lat="45.90206" lon="6.42955">
        <ele>1168.6</ele>
        <time>2015-11-27T11:46:11Z</time>
      </trkpt>
      <trkpt lat="45.90203" lon="6.42963">
        <ele>1169.6</ele>
        <time>2015-11-27T11:46:21Z</time>
      </trkpt>
      <trkpt lat="45.90199" lon="6.42972">
        <ele>1171.6</ele>
        <time>2015-11-27T11:46:31Z</time>
      </trkpt>
      <trkpt lat="45.90194" lon="6.4298">
        <ele>1173.6</ele>
        <time>2015-11-27T11:46:41Z</time>
      </trkpt>
      <trkpt lat="45.9019" lon="6.42987">
        <ele>1175.6</ele>
        <time>2015-11-27T11:46:51Z</time>
      </trkpt>
      <trkpt lat="45.90187" lon="6.42994">
        <ele>1177.6</ele>
        <time>2015-11-27T11:47:01Z</time>
      </trkpt>
      <trkpt lat="45.90184" lon="6.43002">
        <ele>1179.6</ele>
        <time>2015-11-27T11:47:11Z</time>
      </trkpt>
      <trkpt lat="45.90181" lon="6.4301">
        <ele>1180.6</ele>
        <time>2015-11-27T11:47:21Z</time>
      </trkpt>
      <trkpt lat="45.90177" lon="6.43018">
        <ele>1182.6</ele>
        <time>2015-11-27T11:47:31Z</time>
      </trkpt>
      <trkpt lat="45.90174" lon="6.43025">
        <ele>1184.6</ele>
        <time>2015-11-27T11:47:41Z</time>
      </trkpt>
      <trkpt lat="45.90171" lon="6.4303">
        <ele>1187.6</ele>
        <time>2015-11-27T11:47:51Z</time>
      </trkpt>
      <trkpt lat="45.90168" lon="6.43036">
        <ele>1190.6</ele>
        <time>2015-11-27T11:48:01Z</time>
      </trkpt>
      <trkpt lat="45.90163" lon="6.43041">
        <ele>1193.6</ele>
        <time>2015-11-27T11:48:11Z</time>
      </trkpt>
      <trkpt lat="45.90159" lon="6.43046">
        <ele>1197.6</ele>
        <time>2015-11-27T11:48:21Z</time>
      </trkpt>
      <trkpt lat="45.90157" lon="6.43052">
        <ele>1198.6</ele>
        <time>2015-11-27T11:48:31Z</time>
      </trkpt>
      <trkpt lat="45.90155" lon="6.4306">
        <ele>1199.6</ele>
        <time>2015-11-27T11:48:41Z</time>
      </trkpt>
      <trkpt lat="45.90153" lon="6.43069">
        <ele>1200.6</ele>
        <time>2015-11-27T11:48:51Z</time>
      </trkpt>
      <trkpt lat="45.90151" lon="6.43075">
        <ele>1201.6</ele>
        <time>2015-11-27T11:49:01Z</time>
      </trkpt>
      <trkpt lat="45.90149" lon="6.4308">
        <ele>1204.6</ele>
        <time>2015-11-27T11:49:11Z</time>
      </trkpt>
      <trkpt lat="45.90146" lon="6.43088">
        <ele>1204.6</ele>
        <time>2015-11-27T11:49:21Z</time>
      </trkpt>
      <trkpt lat="45.90145" lon="6.43097">
        <ele>1205.6</ele>
        <time>2015-11-27T11:49:31Z</time>
      </trkpt>
      <trkpt lat="45.90143" lon="6.43106">
        <ele>1207.6</ele>
        <time>2015-11-27T11:49:41Z</time>
      </trkpt>
      <trkpt lat="45.90141" lon="6.43116">
        <ele>1208.6</ele>
        <time>2015-11-27T11:49:51Z</time>
      </trkpt>
      <trkpt lat="45.9014" lon="6.43128">
        <ele>1210.6</ele>
        <time>2015-11-27T11:50:01Z</time>
      </trkpt>
      <trkpt lat="45.90138" lon="6.43137">
        <ele>1213.6</ele>
        <time>2015-11-27T11:50:11Z</time>
      </trkpt>
      <trkpt lat="45.90135" lon="6.43145">
        <ele>1215.6</ele>
        <time>2015-11-27T11:50:21Z</time>
      </trkpt>
      <trkpt lat="45.90133" lon="6.43153">
        <ele>1216.6</ele>
        <time>2015-11-27T11:50:31Z</time>
      </trkpt>
      <trkpt lat="45.9013" lon="6.43161">
        <ele>1218.6</ele>
        <time>2015-11-27T11:50:41Z</time>
      </trkpt>
      <trkpt lat="45.90126" lon="6.43169">
        <ele>1221.6</ele>
        <time>2015-11-27T11:50:51Z</time>
      </trkpt>
      <trkpt lat="45.90122" lon="6.43175">
        <ele>1223.6</ele>
        <time>2015-11-27T11:51:01Z</time>
      </trkpt>
      <trkpt lat="45.90117" lon="6.43182">
        <ele>1224.6</ele>
        <time>2015-11-27T11:51:11Z</time>
      </trkpt>
      <trkpt lat="45.90112" lon="6.43187">
        <ele>1226.6</ele>
        <time>2015-11-27T11:51:21Z</time>
      </trkpt>
      <trkpt lat="45.90109" lon="6.43193">
        <ele>1228.6</ele>
        <time>2015-11-27T11:51:31Z</time>
      </trkpt>
      <trkpt lat="45.90106" lon="6.432">
        <ele>1230.6</ele>
        <time>2015-11-27T11:51:41Z</time>
      </trkpt>
      <trkpt lat="45.90102" lon="6.43206">
        <ele>1232.6</ele>
        <time>2015-11-27T11:51:51Z</time>
      </trkpt>
      <trkpt lat="45.90098" lon="6.43213">
        <ele>1235.6</ele>
        <time>2015-11-27T11:52:01Z</time>
      </trkpt>
      <trkpt lat="45.90094" lon="6.43219">
        <ele>1237.6</ele>
        <time>2015-11-27T11:52:11Z</time>
      </trkpt>
      <trkpt lat="45.9009" lon="6.43226">
        <ele>1239.6</ele>
        <time>2015-11-27T11:52:21Z</time>
      </trkpt>
      <trkpt lat="45.90085" lon="6.43233">
        <ele>1240.6</ele>
        <time>2015-11-27T11:52:31Z</time>
      </trkpt>
      <trkpt lat="45.90082" lon="6.43239">
        <ele>1242.6</ele>
        <time>2015-11-27T11:52:41Z</time>
      </trkpt>
      <trkpt lat="45.90078" lon="6.43245">
        <ele>1242.6</ele>
        <time>2015-11-27T11:52:51Z</time>
      </trkpt>
      <trkpt lat="45.90074" lon="6.43252">
        <ele>1244.6</ele>
        <time>2015-11-27T11:53:01Z</time>
      </trkpt>
      <trkpt lat="45.90071" lon="6.4326">
        <ele>1246.6</ele>
        <time>2015-11-27T11:53:11Z</time>
      </trkpt>
      <trkpt lat="45.90067" lon="6.43266">
        <ele>1247.6</ele>
        <time>2015-11-27T11:53:21Z</time>
      </trkpt>
      <trkpt lat="45.90064" lon="6.43274">
        <ele>1250.6</ele>
        <time>2015-11-27T11:53:31Z</time>
      </trkpt>
      <trkpt lat="45.90061" lon="6.43282">
        <ele>1252.6</ele>
        <time>2015-11-27T11:53:41Z</time>
      </trkpt>
      <trkpt lat="45.90057" lon="6.43289">
        <ele>1254.6</ele>
        <time>2015-11-27T11:53:51Z</time>
      </trkpt>
      <trkpt lat="45.90053" lon="6.43294">
        <ele>1256.6</ele>
        <time>2015-11-27T11:54:01Z</time>
      </trkpt>
      <trkpt lat="45.90049" lon="6.433">
        <ele>1258.6</ele>
        <time>2015-11-27T11:54:11Z</time>
      </trkpt>
      <trkpt lat="45.90045" lon="6.43305">
        <ele>1260.6</ele>
        <time>2015-11-27T11:54:21Z</time>
      </trkpt>
      <trkpt lat="45.90041" lon="6.4331">
        <ele>1263.6</ele>
        <time>2015-11-27T11:54:31Z</time>
      </trkpt>
      <trkpt lat="45.90038" lon="6.43315">
        <ele>1264.6</ele>
        <time>2015-11-27T11:54:41Z</time>
      </trkpt>
      <trkpt lat="45.90035" lon="6.43321">
        <ele>1266.6</ele>
        <time>2015-11-27T11:54:51Z</time>
      </trkpt>
      <trkpt lat="45.90032" lon="6.43327">
        <ele>1266.6</ele>
        <time>2015-11-27T11:55:01Z</time>
      </trkpt>
      <trkpt lat="45.90029" lon="6.43335">
        <ele>1268.6</ele>
        <time>2015-11-27T11:55:11Z</time>
      </trkpt>
      <trkpt lat="45.90026" lon="6.43342">
        <ele>1269.6</ele>
        <time>2015-11-27T11:55:21Z</time>
      </trkpt>
      <trkpt lat="45.90023" lon="6.43348">
        <ele>1269.6</ele>
        <time>2015-11-27T11:55:31Z</time>
      </trkpt>
      <trkpt lat="45.90019" lon="6.43353">
        <ele>1270.6</ele>
        <time>2015-11-27T11:55:41Z</time>
      </trkpt>
      <trkpt lat="45.90017" lon="6.4336">
        <ele>1272.6</ele>
        <time>2015-11-27T11:55:51Z</time>
      </trkpt>
      <trkpt lat="45.90015" lon="6.43366">
        <ele>1273.6</ele>
        <time>2015-11-27T11:56:01Z</time>
      </trkpt>
      <trkpt lat="45.90013" lon="6.43375">
        <ele>1276.6</ele>
        <time>2015-11-27T11:56:11Z</time>
      </trkpt>
      <trkpt lat="45.90012" lon="6.43384">
        <ele>1278.6</ele>
        <time>2015-11-27T11:56:21Z</time>
      </trkpt>
      <trkpt lat="45.9001" lon="6.43393">
        <ele>1280.6</ele>
        <time>2015-11-27T11:56:31Z</time>
      </trkpt>
      <trkpt lat="45.90007" lon="6.43401">
        <ele>1283.6</ele>
        <time>2015-11-27T11:56:41Z</time>
      </trkpt>
      <trkpt lat="45.90004" lon="6.43408">
        <ele>1284.6</ele>
        <time>2015-11-27T11:56:51Z</time>
      </trkpt>
      <trkpt lat="45.90002" lon="6.43416">
        <ele>1286.6</ele>
        <time>2015-11-27T11:57:01Z</time>
      </trkpt>
      <trkpt lat="45.89998" lon="6.43426">
        <ele>1288.6</ele>
        <time>2015-11-27T11:57:11Z</time>
      </trkpt>
      <trkpt lat="45.89997" lon="6.43438">
        <ele>1290.6</ele>
        <time>2015-11-27T11:57:21Z</time>
      </trkpt>
      <trkpt lat="45.89999" lon="6.43449">
        <ele>1292.6</ele>
        <time>2015-11-27T11:57:31Z</time>
      </trkpt>
      <trkpt lat="45.89998" lon="6.43457">
        <ele>1294.6</ele>
        <time>2015-11-27T11:57:41Z</time>
      </trkpt>
      <trkpt lat="45.89991" lon="6.43462">
        <ele>1296.6</ele>
        <time>2015-11-27T11:57:51Z</time>
      </trkpt>
      <trkpt lat="45.89985" lon="6.43467">
        <ele>1298.6</ele>
        <time>2015-11-27T11:58:01Z</time>
      </trkpt>
      <trkpt lat="45.89981" lon="6.43473">
        <ele>1301.6</ele>
        <time>2015-11-27T11:58:11Z</time>
      </trkpt>
      <trkpt lat="45.89976" lon="6.43479">
        <ele>1303.6</ele>
        <time>2015-11-27T11:58:21Z</time>
      </trkpt>
      <trkpt lat="45.89979" lon="6.43488">
        <ele>1304.6</ele>
        <time>2015-11-27T11:58:31Z</time>
      </trkpt>
      <trkpt lat="45.89982" lon="6.43495">
        <ele>1306.6</ele>
        <time>2015-11-27T11:58:41Z</time>
      </trkpt>
      <trkpt lat="45.89984" lon="6.43502">
        <ele>1307.6</ele>
        <time>2015-11-27T11:58:51Z</time>
      </trkpt>
      <trkpt lat="45.89977" lon="6.43504">
        <ele>1310.6</ele>
        <time>2015-11-27T11:59:01Z</time>
      </trkpt>
      <trkpt lat="45.89971" lon="6.43507">
        <ele>1313.6</ele>
        <time>2015-11-27T11:59:11Z</time>
      </trkpt>
      <trkpt lat="45.89964" lon="6.43509">
        <ele>1318.6</ele>
        <time>2015-11-27T11:59:21Z</time>
      </trkpt>
      <trkpt lat="45.89957" lon="6.43513">
        <ele>1319.6</ele>
        <time>2015-11-27T11:59:31Z</time>
      </trkpt>
      <trkpt lat="45.8995" lon="6.43514">
        <ele>1323.6</ele>
        <time>2015-11-27T11:59:41Z</time>
      </trkpt>
      <trkpt lat="45.89944" lon="6.43517">
        <ele>1326.6</ele>
        <time>2015-11-27T11:59:51Z</time>
      </trkpt>
      <trkpt lat="45.89943" lon="6.43521">
        <ele>1324.6</ele>
        <time>2015-11-27T12:00:01Z</time>
      </trkpt>
      <trkpt lat="45.89948" lon="6.43528">
        <ele>1324.6</ele>
        <time>2015-11-27T12:00:11Z</time>
      </trkpt>
      <trkpt lat="45.89943" lon="6.43532">
        <ele>1327.6</ele>
        <time>2015-11-27T12:00:21Z</time>
      </trkpt>
      <trkpt lat="45.89943" lon="6.4354">
        <ele>1328.6</ele>
        <time>2015-11-27T12:00:31Z</time>
      </trkpt>
      <trkpt lat="45.89943" lon="6.43548">
        <ele>1330.6</ele>
        <time>2015-11-27T12:00:41Z</time>
      </trkpt>
      <trkpt lat="45.89944" lon="6.43557">
        <ele>1331.6</ele>
        <time>2015-11-27T12:00:51Z</time>
      </trkpt>
      <trkpt lat="45.89944" lon="6.43565">
        <ele>1334.6</ele>
        <time>2015-11-27T12:01:01Z</time>
      </trkpt>
      <trkpt lat="45.89938" lon="6.43564">
        <ele>1337.6</ele>
        <time>2015-11-27T12:01:11Z</time>
      </trkpt>
      <trkpt lat="45.89933" lon="6.4357">
        <ele>1339.6</ele>
        <time>2015-11-27T12:01:21Z</time>
      </trkpt>
      <trkpt lat="45.89931" lon="6.43577">
        <ele>1338.6</ele>
        <time>2015-11-27T12:01:31Z</time>
      </trkpt>
      <trkpt lat="45.89931" lon="6.43586">
        <ele>1341.6</ele>
        <time>2015-11-27T12:01:41Z</time>
      </trkpt>
      <trkpt lat="45.89932" lon="6.43595">
        <ele>1343.6</ele>
        <time>2015-11-27T12:01:51Z</time>
      </trkpt>
      <trkpt lat="45.89928" lon="6.43598">
        <ele>1346.6</ele>
        <time>2015-11-27T12:02:01Z</time>
      </trkpt>
      <trkpt lat="45.89923" lon="6.43596">
        <ele>1347.6</ele>
        <time>2015-11-27T12:02:11Z</time>
      </trkpt>
      <trkpt lat="45.89918" lon="6.43597">
        <ele>1348.6</ele>
        <time>2015-11-27T12:02:21Z</time>
      </trkpt>
      <trkpt lat="45.89914" lon="6.43602">
        <ele>1349.6</ele>
        <time>2015-11-27T12:02:31Z</time>
      </trkpt>
      <trkpt lat="45.89914" lon="6.43612">
        <ele>1350.6</ele>
        <time>2015-11-27T12:02:41Z</time>
      </trkpt>
      <trkpt lat="45.89915" lon="6.43622">
        <ele>1351.6</ele>
        <time>2015-11-27T12:02:51Z</time>
      </trkpt>
      <trkpt lat="45.89915" lon="6.43632">
        <ele>1353.6</ele>
        <time>2015-11-27T12:03:01Z</time>
      </trkpt>
      <trkpt lat="45.89915" lon="6.43641">
        <ele>1354.6</ele>
        <time>2015-11-27T12:03:11Z</time>
      </trkpt>
      <trkpt lat="45.89916" lon="6.43651">
        <ele>1356.6</ele>
        <time>2015-11-27T12:03:21Z</time>
      </trkpt>
      <trkpt lat="45.89916" lon="6.43658">
        <ele>1356.6</ele>
        <time>2015-11-27T12:03:31Z</time>
      </trkpt>
      <trkpt lat="45.89916" lon="6.43667">
        <ele>1359.6</ele>
        <time>2015-11-27T12:03:41Z</time>
      </trkpt>
      <trkpt lat="45.89915" lon="6.43676">
        <ele>1361.6</ele>
        <time>2015-11-27T12:03:51Z</time>
      </trkpt>
      <trkpt lat="45.89914" lon="6.43685">
        <ele>1362.6</ele>
        <time>2015-11-27T12:04:01Z</time>
      </trkpt>
      <trkpt lat="45.89914" lon="6.43692">
        <ele>1363.6</ele>
        <time>2015-11-27T12:04:11Z</time>
      </trkpt>
      <trkpt lat="45.89913" lon="6.43699">
        <ele>1364.6</ele>
        <time>2015-11-27T12:04:21Z</time>
      </trkpt>
      <trkpt lat="45.89909" lon="6.43699">
        <ele>1368.6</ele>
        <time>2015-11-27T12:04:31Z</time>
      </trkpt>
      <trkpt lat="45.89903" lon="6.43698">
        <ele>1371.6</ele>
        <time>2015-11-27T12:04:41Z</time>
      </trkpt>
      <trkpt lat="45.89899" lon="6.43698">
        <ele>1374.6</ele>
        <time>2015-11-27T12:04:51Z</time>
      </trkpt>
      <trkpt lat="45.89893" lon="6.43699">
        <ele>1375.6</ele>
        <time>2015-11-27T12:05:01Z</time>
      </trkpt>
      <trkpt lat="45.89888" lon="6.437">
        <ele>1377.6</ele>
        <time>2015-11-27T12:05:11Z</time>
      </trkpt>
      <trkpt lat="45.89882" lon="6.43697">
        <ele>1381.6</ele>
        <time>2015-11-27T12:05:21Z</time>
      </trkpt>
      <trkpt lat="45.8988" lon="6.43704">
        <ele>1380.6</ele>
        <time>2015-11-27T12:05:31Z</time>
      </trkpt>
      <trkpt lat="45.89876" lon="6.43707">
        <ele>1383.6</ele>
        <time>2015-11-27T12:05:41Z</time>
      </trkpt>
      <trkpt lat="45.89874" lon="6.43713">
        <ele>1382.6</ele>
        <time>2015-11-27T12:05:51Z</time>
      </trkpt>
      <trkpt lat="45.8987" lon="6.43717">
        <ele>1385.6</ele>
        <time>2015-11-27T12:06:01Z</time>
      </trkpt>
      <trkpt lat="45.89867" lon="6.43722">
        <ele>1386.6</ele>
        <time>2015-11-27T12:06:11Z</time>
      </trkpt>
      <trkpt lat="45.89863" lon="6.43725">
        <ele>1389.6</ele>
        <time>2015-11-27T12:06:21Z</time>
      </trkpt>
      <trkpt lat="45.89861" lon="6.43732">
        <ele>1389.6</ele>
        <time>2015-11-27T12:06:31Z</time>
      </trkpt>
      <trkpt lat="45.89857" lon="6.43735">
        <ele>1391.6</ele>
        <time>2015-11-27T12:06:41Z</time>
      </trkpt>
      <trkpt lat="45.89851" lon="6.43739">
        <ele>1395.6</ele>
        <time>2015-11-27T12:06:51Z</time>
      </trkpt>
      <trkpt lat="45.89849" lon="6.43747">
        <ele>1396.6</ele>
        <time>2015-11-27T12:07:01Z</time>
      </trkpt>
      <trkpt lat="45.89843" lon="6.43748">
        <ele>1400.6</ele>
        <time>2015-11-27T12:07:11Z</time>
      </trkpt>
      <trkpt lat="45.89837" lon="6.43752">
        <ele>1401.6</ele>
        <time>2015-11-27T12:07:21Z</time>
      </trkpt>
      <trkpt lat="45.89833" lon="6.43758">
        <ele>1402.6</ele>
        <time>2015-11-27T12:07:31Z</time>
      </trkpt>
      <trkpt lat="45.89829" lon="6.43763">
        <ele>1402.6</ele>
        <time>2015-11-27T12:07:41Z</time>
      </trkpt>
      <trkpt lat="45.89824" lon="6.43767">
        <ele>1402.6</ele>
        <time>2015-11-27T12:07:51Z</time>
      </trkpt>
      <trkpt lat="45.89819" lon="6.43772">
        <ele>1403.6</ele>
        <time>2015-11-27T12:08:01Z</time>
      </trkpt>
      <trkpt lat="45.89814" lon="6.43775">
        <ele>1406.6</ele>
        <time>2015-11-27T12:08:11Z</time>
      </trkpt>
      <trkpt lat="45.8981" lon="6.43781">
        <ele>1408.6</ele>
        <time>2015-11-27T12:08:21Z</time>
      </trkpt>
      <trkpt lat="45.89804" lon="6.43784">
        <ele>1410.6</ele>
        <time>2015-11-27T12:08:31Z</time>
      </trkpt>
      <trkpt lat="45.898" lon="6.43789">
        <ele>1411.6</ele>
        <time>2015-11-27T12:08:41Z</time>
      </trkpt>
      <trkpt lat="45.89795" lon="6.43792">
        <ele>1415.6</ele>
        <time>2015-11-27T12:08:51Z</time>
      </trkpt>
      <trkpt lat="45.89789" lon="6.43794">
        <ele>1418.6</ele>
        <time>2015-11-27T12:09:01Z</time>
      </trkpt>
      <trkpt lat="45.89783" lon="6.43796">
        <ele>1422.6</ele>
        <time>2015-11-27T12:09:11Z</time>
      </trkpt>
      <trkpt lat="45.89784" lon="6.43797">
        <ele>1424.6</ele>
        <time>2015-11-27T12:09:21Z</time>
      </trkpt>
      <trkpt lat="45.89784" lon="6.43797">
        <ele>1424.6</ele>
        <time>2015-11-27T12:09:31Z</time>
      </trkpt>
      <trkpt lat="45.89784" lon="6.43797">
        <ele>1424.6</ele>
        <time>2015-11-27T12:09:41Z</time>
      </trkpt>
      <trkpt lat="45.89784" lon="6.43797">
        <ele>1424.6</ele>
        <time>2015-11-27T12:09:51Z</time>
      </trkpt>
      <trkpt lat="45.89784" lon="6.43797">
        <ele>1424.6</ele>
        <time>2015-11-27T12:10:01Z</time>
      </trkpt>
      <trkpt lat="45.89784" lon="6.43797">
        <ele>1424.6</ele>
        <time>2015-11-27T12:10:11Z</time>
      </trkpt>
      <trkpt lat="45.89784" lon="6.43797">
        <ele>1424.6</ele>
        <time>2015-11-27T12:10:21Z</time>
      </trkpt>
      <trkpt lat="45.89784" lon="6.43797">
        <ele>1424.6</ele>
        <time>2015-11-27T12:10:31Z</time>
      </trkpt>
      <trkpt lat="45.89783" lon="6.43796">
        <ele>1423.6</ele>
        <time>2015-11-27T12:10:41Z</time>
      </trkpt>
      <trkpt lat="45.89779" lon="6.43802">
        <ele>1421.6</ele>
        <time>2015-11-27T12:10:51Z</time>
      </trkpt>
      <trkpt lat="45.89777" lon="6.43811">
        <ele>1422.6</ele>
        <time>2015-11-27T12:11:01Z</time>
      </trkpt>
      <trkpt lat="45.89773" lon="6.43817">
        <ele>1424.6</ele>
        <time>2015-11-27T12:11:11Z</time>
      </trkpt>
      <trkpt lat="45.89768" lon="6.43823">
        <ele>1425.6</ele>
        <time>2015-11-27T12:11:21Z</time>
      </trkpt>
      <trkpt lat="45.89764" lon="6.43829">
        <ele>1428.6</ele>
        <time>2015-11-27T12:11:31Z</time>
      </trkpt>
      <trkpt lat="45.89759" lon="6.43833">
        <ele>1430.6</ele>
        <time>2015-11-27T12:11:41Z</time>
      </trkpt>
      <trkpt lat="45.89755" lon="6.43837">
        <ele>1431.6</ele>
        <time>2015-11-27T12:11:51Z</time>
      </trkpt>
      <trkpt lat="45.89749" lon="6.43841">
        <ele>1431.6</ele>
        <time>2015-11-27T12:12:01Z</time>
      </trkpt>
      <trkpt lat="45.89744" lon="6.43844">
        <ele>1435.6</ele>
        <time>2015-11-27T12:12:11Z</time>
      </trkpt>
      <trkpt lat="45.8974" lon="6.4385">
        <ele>1435.6</ele>
        <time>2015-11-27T12:12:21Z</time>
      </trkpt>
      <trkpt lat="45.89736" lon="6.43854">
        <ele>1436.6</ele>
        <time>2015-11-27T12:12:31Z</time>
      </trkpt>
      <trkpt lat="45.89732" lon="6.43859">
        <ele>1439.6</ele>
        <time>2015-11-27T12:12:41Z</time>
      </trkpt>
      <trkpt lat="45.89729" lon="6.43863">
        <ele>1441.6</ele>
        <time>2015-11-27T12:12:51Z</time>
      </trkpt>
      <trkpt lat="45.89727" lon="6.43867">
        <ele>1443.6</ele>
        <time>2015-11-27T12:13:01Z</time>
      </trkpt>
      <trkpt lat="45.89725" lon="6.43873">
        <ele>1445.6</ele>
        <time>2015-11-27T12:13:11Z</time>
      </trkpt>
      <trkpt lat="45.89721" lon="6.43879">
        <ele>1447.6</ele>
        <time>2015-11-27T12:13:21Z</time>
      </trkpt>
      <trkpt lat="45.89718" lon="6.43887">
        <ele>1448.6</ele>
        <time>2015-11-27T12:13:31Z</time>
      </trkpt>
      <trkpt lat="45.89714" lon="6.43894">
        <ele>1450.6</ele>
        <time>2015-11-27T12:13:41Z</time>
      </trkpt>
      <trkpt lat="45.8971" lon="6.43901">
        <ele>1451.6</ele>
        <time>2015-11-27T12:13:51Z</time>
      </trkpt>
      <trkpt lat="45.8971" lon="6.43908">
        <ele>1451.6</ele>
        <time>2015-11-27T12:14:01Z</time>
      </trkpt>
      <trkpt lat="45.8971" lon="6.43916">
        <ele>1452.6</ele>
        <time>2015-11-27T12:14:11Z</time>
      </trkpt>
      <trkpt lat="45.89708" lon="6.43924">
        <ele>1454.6</ele>
        <time>2015-11-27T12:14:21Z</time>
      </trkpt>
      <trkpt lat="45.89705" lon="6.4393">
        <ele>1456.6</ele>
        <time>2015-11-27T12:14:31Z</time>
      </trkpt>
      <trkpt lat="45.89703" lon="6.43936">
        <ele>1460.6</ele>
        <time>2015-11-27T12:14:41Z</time>
      </trkpt>
      <trkpt lat="45.89699" lon="6.43942">
        <ele>1462.6</ele>
        <time>2015-11-27T12:14:51Z</time>
      </trkpt>
      <trkpt lat="45.89695" lon="6.43946">
        <ele>1465.6</ele>
        <time>2015-11-27T12:15:01Z</time>
      </trkpt>
      <trkpt lat="45.8969" lon="6.4395">
        <ele>1468.6</ele>
        <time>2015-11-27T12:15:11Z</time>
      </trkpt>
      <trkpt lat="45.89686" lon="6.43953">
        <ele>1470.6</ele>
        <time>2015-11-27T12:15:21Z</time>
      </trkpt>
      <trkpt lat="45.8968" lon="6.43956">
        <ele>1473.6</ele>
        <time>2015-11-27T12:15:31Z</time>
      </trkpt>
      <trkpt lat="45.89676" lon="6.4396">
        <ele>1477.6</ele>
        <time>2015-11-27T12:15:41Z</time>
      </trkpt>
      <trkpt lat="45.89672" lon="6.43964">
        <ele>1479.6</ele>
        <time>2015-11-27T12:15:51Z</time>
      </trkpt>
      <trkpt lat="45.89669" lon="6.43971">
        <ele>1474.6</ele>
        <time>2015-11-27T12:16:01Z</time>
      </trkpt>
      <trkpt lat="45.89673" lon="6.43979">
        <ele>1473.6</ele>
        <time>2015-11-27T12:16:11Z</time>
      </trkpt>
      <trkpt lat="45.89672" lon="6.43986">
        <ele>1475.6</ele>
        <time>2015-11-27T12:16:21Z</time>
      </trkpt>
      <trkpt lat="45.89671" lon="6.43993">
        <ele>1477.6</ele>
        <time>2015-11-27T12:16:31Z</time>
      </trkpt>
      <trkpt lat="45.89671" lon="6.43999">
        <ele>1479.6</ele>
        <time>2015-11-27T12:16:41Z</time>
      </trkpt>
      <trkpt lat="45.89669" lon="6.44006">
        <ele>1480.6</ele>
        <time>2015-11-27T12:16:51Z</time>
      </trkpt>
      <trkpt lat="45.89671" lon="6.44015">
        <ele>1483.6</ele>
        <time>2015-11-27T12:17:01Z</time>
      </trkpt>
      <trkpt lat="45.89673" lon="6.44023">
        <ele>1487.6</ele>
        <time>2015-11-27T12:17:11Z</time>
      </trkpt>
      <trkpt lat="45.89675" lon="6.4403">
        <ele>1490.6</ele>
        <time>2015-11-27T12:17:21Z</time>
      </trkpt>
      <trkpt lat="45.89676" lon="6.44038">
        <ele>1492.6</ele>
        <time>2015-11-27T12:17:31Z</time>
      </trkpt>
      <trkpt lat="45.89676" lon="6.44047">
        <ele>1493.6</ele>
        <time>2015-11-27T12:17:41Z</time>
      </trkpt>
      <trkpt lat="45.89675" lon="6.44057">
        <ele>1493.6</ele>
        <time>2015-11-27T12:17:51Z</time>
      </trkpt>
      <trkpt lat="45.8967" lon="6.44065">
        <ele>1495.6</ele>
        <time>2015-11-27T12:18:01Z</time>
      </trkpt>
      <trkpt lat="45.89664" lon="6.44072">
        <ele>1497.6</ele>
        <time>2015-11-27T12:18:11Z</time>
      </trkpt>
      <trkpt lat="45.89659" lon="6.44083">
        <ele>1498.6</ele>
        <time>2015-11-27T12:18:21Z</time>
      </trkpt>
      <trkpt lat="45.89655" lon="6.44094">
        <ele>1496.6</ele>
        <time>2015-11-27T12:18:31Z</time>
      </trkpt>
      <trkpt lat="45.89651" lon="6.44105">
        <ele>1497.6</ele>
        <time>2015-11-27T12:18:41Z</time>
      </trkpt>
      <trkpt lat="45.89648" lon="6.44114">
        <ele>1499.6</ele>
        <time>2015-11-27T12:18:51Z</time>
      </trkpt>
      <trkpt lat="45.89649" lon="6.44124">
        <ele>1500.6</ele>
        <time>2015-11-27T12:19:01Z</time>
      </trkpt>
      <trkpt lat="45.89651" lon="6.44134">
        <ele>1502.6</ele>
        <time>2015-11-27T12:19:11Z</time>
      </trkpt>
      <trkpt lat="45.89652" lon="6.44145">
        <ele>1504.6</ele>
        <time>2015-11-27T12:19:21Z</time>
      </trkpt>
      <trkpt lat="45.89652" lon="6.44156">
        <ele>1504.6</ele>
        <time>2015-11-27T12:19:31Z</time>
      </trkpt>
      <trkpt lat="45.89652" lon="6.44166">
        <ele>1505.6</ele>
        <time>2015-11-27T12:19:41Z</time>
      </trkpt>
      <trkpt lat="45.89652" lon="6.44174">
        <ele>1505.6</ele>
        <time>2015-11-27T12:19:51Z</time>
      </trkpt>
      <trkpt lat="45.89651" lon="6.44182">
        <ele>1506.6</ele>
        <time>2015-11-27T12:20:01Z</time>
      </trkpt>
      <trkpt lat="45.8965" lon="6.4419">
        <ele>1507.6</ele>
        <time>2015-11-27T12:20:11Z</time>
      </trkpt>
      <trkpt lat="45.8965" lon="6.44199">
        <ele>1508.6</ele>
        <time>2015-11-27T12:20:21Z</time>
      </trkpt>
      <trkpt lat="45.89645" lon="6.44208">
        <ele>1509.6</ele>
        <time>2015-11-27T12:20:31Z</time>
      </trkpt>
      <trkpt lat="45.89638" lon="6.44208">
        <ele>1513.6</ele>
        <time>2015-11-27T12:20:41Z</time>
      </trkpt>
      <trkpt lat="45.89632" lon="6.44213">
        <ele>1511.6</ele>
        <time>2015-11-27T12:20:51Z</time>
      </trkpt>
      <trkpt lat="45.89629" lon="6.44224">
        <ele>1514.6</ele>
        <time>2015-11-27T12:21:01Z</time>
      </trkpt>
      <trkpt lat="45.89625" lon="6.44231">
        <ele>1515.6</ele>
        <time>2015-11-27T12:21:11Z</time>
      </trkpt>
      <trkpt lat="45.89621" lon="6.4424">
        <ele>1518.6</ele>
        <time>2015-11-27T12:21:21Z</time>
      </trkpt>
      <trkpt lat="45.89617" lon="6.4425">
        <ele>1517.6</ele>
        <time>2015-11-27T12:21:31Z</time>
      </trkpt>
      <trkpt lat="45.89611" lon="6.44259">
        <ele>1518.6</ele>
        <time>2015-11-27T12:21:41Z</time>
      </trkpt>
      <trkpt lat="45.89607" lon="6.44269">
        <ele>1518.6</ele>
        <time>2015-11-27T12:21:51Z</time>
      </trkpt>
      <trkpt lat="45.89602" lon="6.44277">
        <ele>1520.6</ele>
        <time>2015-11-27T12:22:01Z</time>
      </trkpt>
      <trkpt lat="45.89598" lon="6.44286">
        <ele>1523.6</ele>
        <time>2015-11-27T12:22:11Z</time>
      </trkpt>
      <trkpt lat="45.89594" lon="6.44293">
        <ele>1525.6</ele>
        <time>2015-11-27T12:22:21Z</time>
      </trkpt>
      <trkpt lat="45.8959" lon="6.44301">
        <ele>1527.6</ele>
        <time>2015-11-27T12:22:31Z</time>
      </trkpt>
      <trkpt lat="45.89586" lon="6.4431">
        <ele>1528.6</ele>
        <time>2015-11-27T12:22:41Z</time>
      </trkpt>
      <trkpt lat="45.89583" lon="6.44319">
        <ele>1530.6</ele>
        <time>2015-11-27T12:22:51Z</time>
      </trkpt>
      <trkpt lat="45.89578" lon="6.44327">
        <ele>1532.6</ele>
        <time>2015-11-27T12:23:01Z</time>
      </trkpt>
      <trkpt lat="45.89574" lon="6.44334">
        <ele>1533.6</ele>
        <time>2015-11-27T12:23:11Z</time>
      </trkpt>
      <trkpt lat="45.89569" lon="6.44341">
        <ele>1535.6</ele>
        <time>2015-11-27T12:23:21Z</time>
      </trkpt>
      <trkpt lat="45.89565" lon="6.44348">
        <ele>1536.6</ele>
        <time>2015-11-27T12:23:31Z</time>
      </trkpt>
      <trkpt lat="45.89561" lon="6.44354">
        <ele>1538.6</ele>
        <time>2015-11-27T12:23:41Z</time>
      </trkpt>
      <trkpt lat="45.89558" lon="6.44361">
        <ele>1539.6</ele>
        <time>2015-11-27T12:23:51Z</time>
      </trkpt>
      <trkpt lat="45.89554" lon="6.44368">
        <ele>1541.6</ele>
        <time>2015-11-27T12:24:01Z</time>
      </trkpt>
      <trkpt lat="45.8955" lon="6.44375">
        <ele>1543.6</ele>
        <time>2015-11-27T12:24:11Z</time>
      </trkpt>
      <trkpt lat="45.89547" lon="6.44382">
        <ele>1544.6</ele>
        <time>2015-11-27T12:24:21Z</time>
      </trkpt>
      <trkpt lat="45.89543" lon="6.4439">
        <ele>1546.6</ele>
        <time>2015-11-27T12:24:31Z</time>
      </trkpt>
      <trkpt lat="45.89539" lon="6.44396">
        <ele>1547.6</ele>
        <time>2015-11-27T12:24:41Z</time>
      </trkpt>
      <trkpt lat="45.89535" lon="6.44403">
        <ele>1549.6</ele>
        <time>2015-11-27T12:24:51Z</time>
      </trkpt>
      <trkpt lat="45.89532" lon="6.44411">
        <ele>1550.6</ele>
        <time>2015-11-27T12:25:01Z</time>
      </trkpt>
      <trkpt lat="45.89528" lon="6.44418">
        <ele>1551.6</ele>
        <time>2015-11-27T12:25:11Z</time>
      </trkpt>
      <trkpt lat="45.89523" lon="6.44425">
        <ele>1553.6</ele>
        <time>2015-11-27T12:25:21Z</time>
      </trkpt>
      <trkpt lat="45.8952" lon="6.4443">
        <ele>1555.6</ele>
        <time>2015-11-27T12:25:31Z</time>
      </trkpt>
      <trkpt lat="45.89516" lon="6.44438">
        <ele>1556.6</ele>
        <time>2015-11-27T12:25:41Z</time>
      </trkpt>
      <trkpt lat="45.89512" lon="6.44444">
        <ele>1558.6</ele>
        <time>2015-11-27T12:25:51Z</time>
      </trkpt>
      <trkpt lat="45.89509" lon="6.44451">
        <ele>1560.6</ele>
        <time>2015-11-27T12:26:01Z</time>
      </trkpt>
      <trkpt lat="45.89506" lon="6.44456">
        <ele>1561.6</ele>
        <time>2015-11-27T12:26:11Z</time>
      </trkpt>
      <trkpt lat="45.89502" lon="6.44464">
        <ele>1563.6</ele>
        <time>2015-11-27T12:26:21Z</time>
      </trkpt>
      <trkpt lat="45.89499" lon="6.44472">
        <ele>1565.6</ele>
        <time>2015-11-27T12:26:31Z</time>
      </trkpt>
      <trkpt lat="45.89496" lon="6.4448">
        <ele>1566.6</ele>
        <time>2015-11-27T12:26:41Z</time>
      </trkpt>
      <trkpt lat="45.89493" lon="6.44488">
        <ele>1567.6</ele>
        <time>2015-11-27T12:26:51Z</time>
      </trkpt>
      <trkpt lat="45.8949" lon="6.44496">
        <ele>1569.6</ele>
        <time>2015-11-27T12:27:01Z</time>
      </trkpt>
      <trkpt lat="45.89487" lon="6.44504">
        <ele>1572.6</ele>
        <time>2015-11-27T12:27:11Z</time>
      </trkpt>
      <trkpt lat="45.89484" lon="6.44512">
        <ele>1573.6</ele>
        <time>2015-11-27T12:27:21Z</time>
      </trkpt>
      <trkpt lat="45.89482" lon="6.4452">
        <ele>1574.6</ele>
        <time>2015-11-27T12:27:31Z</time>
      </trkpt>
      <trkpt lat="45.8948" lon="6.44527">
        <ele>1575.6</ele>
        <time>2015-11-27T12:27:41Z</time>
      </trkpt>
      <trkpt lat="45.89477" lon="6.44535">
        <ele>1577.6</ele>
        <time>2015-11-27T12:27:51Z</time>
      </trkpt>
      <trkpt lat="45.89475" lon="6.44542">
        <ele>1578.6</ele>
        <time>2015-11-27T12:28:01Z</time>
      </trkpt>
      <trkpt lat="45.89472" lon="6.4455">
        <ele>1581.6</ele>
        <time>2015-11-27T12:28:11Z</time>
      </trkpt>
      <trkpt lat="45.89469" lon="6.44558">
        <ele>1582.6</ele>
        <time>2015-11-27T12:28:21Z</time>
      </trkpt>
      <trkpt lat="45.89466" lon="6.44565">
        <ele>1583.6</ele>
        <time>2015-11-27T12:28:31Z</time>
      </trkpt>
      <trkpt lat="45.89461" lon="6.44573">
        <ele>1585.6</ele>
        <time>2015-11-27T12:28:41Z</time>
      </trkpt>
      <trkpt lat="45.89458" lon="6.44581">
        <ele>1587.6</ele>
        <time>2015-11-27T12:28:51Z</time>
      </trkpt>
      <trkpt lat="45.89456" lon="6.44591">
        <ele>1587.6</ele>
        <time>2015-11-27T12:29:01Z</time>
      </trkpt>
      <trkpt lat="45.89456" lon="6.44601">
        <ele>1589.6</ele>
        <time>2015-11-27T12:29:11Z</time>
      </trkpt>
      <trkpt lat="45.89454" lon="6.4461">
        <ele>1591.6</ele>
        <time>2015-11-27T12:29:21Z</time>
      </trkpt>
      <trkpt lat="45.8945" lon="6.4462">
        <ele>1593.6</ele>
        <time>2015-11-27T12:29:31Z</time>
      </trkpt>
      <trkpt lat="45.89447" lon="6.44628">
        <ele>1594.6</ele>
        <time>2015-11-27T12:29:41Z</time>
      </trkpt>
      <trkpt lat="45.89443" lon="6.44635">
        <ele>1593.6</ele>
        <time>2015-11-27T12:29:51Z</time>
      </trkpt>
      <trkpt lat="45.89438" lon="6.44641">
        <ele>1596.6</ele>
        <time>2015-11-27T12:30:01Z</time>
      </trkpt>
      <trkpt lat="45.89435" lon="6.4465">
        <ele>1598.6</ele>
        <time>2015-11-27T12:30:11Z</time>
      </trkpt>
      <trkpt lat="45.89437" lon="6.44661">
        <ele>1600.6</ele>
        <time>2015-11-27T12:30:21Z</time>
      </trkpt>
      <trkpt lat="45.89441" lon="6.44671">
        <ele>1602.6</ele>
        <time>2015-11-27T12:30:31Z</time>
      </trkpt>
      <trkpt lat="45.89439" lon="6.44681">
        <ele>1604.6</ele>
        <time>2015-11-27T12:30:41Z</time>
      </trkpt>
      <trkpt lat="45.89434" lon="6.44687">
        <ele>1607.6</ele>
        <time>2015-11-27T12:30:51Z</time>
      </trkpt>
      <trkpt lat="45.89429" lon="6.44692">
        <ele>1610.6</ele>
        <time>2015-11-27T12:31:01Z</time>
      </trkpt>
      <trkpt lat="45.89424" lon="6.44695">
        <ele>1613.6</ele>
        <time>2015-11-27T12:31:11Z</time>
      </trkpt>
      <trkpt lat="45.8942" lon="6.44699">
        <ele>1614.6</ele>
        <time>2015-11-27T12:31:21Z</time>
      </trkpt>
      <trkpt lat="45.89415" lon="6.44703">
        <ele>1614.6</ele>
        <time>2015-11-27T12:31:31Z</time>
      </trkpt>
      <trkpt lat="45.8941" lon="6.44707">
        <ele>1616.6</ele>
        <time>2015-11-27T12:31:41Z</time>
      </trkpt>
      <trkpt lat="45.89405" lon="6.44713">
        <ele>1618.6</ele>
        <time>2015-11-27T12:31:51Z</time>
      </trkpt>
      <trkpt lat="45.894" lon="6.44718">
        <ele>1621.6</ele>
        <time>2015-11-27T12:32:01Z</time>
      </trkpt>
      <trkpt lat="45.89395" lon="6.44722">
        <ele>1621.6</ele>
        <time>2015-11-27T12:32:11Z</time>
      </trkpt>
      <trkpt lat="45.89389" lon="6.44725">
        <ele>1619.6</ele>
        <time>2015-11-27T12:32:21Z</time>
      </trkpt>
      <trkpt lat="45.89382" lon="6.44728">
        <ele>1621.6</ele>
        <time>2015-11-27T12:32:31Z</time>
      </trkpt>
      <trkpt lat="45.89375" lon="6.44727">
        <ele>1622.6</ele>
        <time>2015-11-27T12:32:41Z</time>
      </trkpt>
      <trkpt lat="45.89368" lon="6.44726">
        <ele>1623.6</ele>
        <time>2015-11-27T12:32:51Z</time>
      </trkpt>
      <trkpt lat="45.89362" lon="6.44725">
        <ele>1625.6</ele>
        <time>2015-11-27T12:33:01Z</time>
      </trkpt>
      <trkpt lat="45.89355" lon="6.44722">
        <ele>1627.6</ele>
        <time>2015-11-27T12:33:11Z</time>
      </trkpt>
      <trkpt lat="45.89348" lon="6.4472">
        <ele>1628.6</ele>
        <time>2015-11-27T12:33:21Z</time>
      </trkpt>
      <trkpt lat="45.8934" lon="6.44717">
        <ele>1629.6</ele>
        <time>2015-11-27T12:33:31Z</time>
      </trkpt>
      <trkpt lat="45.89333" lon="6.44712">
        <ele>1631.6</ele>
        <time>2015-11-27T12:33:41Z</time>
      </trkpt>
      <trkpt lat="45.89324" lon="6.44707">
        <ele>1633.6</ele>
        <time>2015-11-27T12:33:51Z</time>
      </trkpt>
      <trkpt lat="45.89317" lon="6.44704">
        <ele>1634.6</ele>
        <time>2015-11-27T12:34:01Z</time>
      </trkpt>
      <trkpt lat="45.89311" lon="6.44702">
        <ele>1636.6</ele>
        <time>2015-11-27T12:34:11Z</time>
      </trkpt>
      <trkpt lat="45.89305" lon="6.44704">
        <ele>1638.6</ele>
        <time>2015-11-27T12:34:21Z</time>
      </trkpt>
      <trkpt lat="45.89305" lon="6.44705">
        <ele>1638.6</ele>
        <time>2015-11-27T12:34:31Z</time>
      </trkpt>
      <trkpt lat="45.893" lon="6.44707">
        <ele>1639.6</ele>
        <time>2015-11-27T12:34:41Z</time>
      </trkpt>
      <trkpt lat="45.89294" lon="6.4471">
        <ele>1642.6</ele>
        <time>2015-11-27T12:34:51Z</time>
      </trkpt>
      <trkpt lat="45.89288" lon="6.44715">
        <ele>1643.6</ele>
        <time>2015-11-27T12:35:01Z</time>
      </trkpt>
      <trkpt lat="45.89282" lon="6.44721">
        <ele>1645.6</ele>
        <time>2015-11-27T12:35:11Z</time>
      </trkpt>
      <trkpt lat="45.89277" lon="6.44727">
        <ele>1648.6</ele>
        <time>2015-11-27T12:35:21Z</time>
      </trkpt>
      <trkpt lat="45.89272" lon="6.44733">
        <ele>1649.6</ele>
        <time>2015-11-27T12:35:31Z</time>
      </trkpt>
      <trkpt lat="45.89267" lon="6.44738">
        <ele>1652.6</ele>
        <time>2015-11-27T12:35:41Z</time>
      </trkpt>
      <trkpt lat="45.8926" lon="6.44736">
        <ele>1654.6</ele>
        <time>2015-11-27T12:35:51Z</time>
      </trkpt>
      <trkpt lat="45.89255" lon="6.44739">
        <ele>1656.6</ele>
        <time>2015-11-27T12:36:01Z</time>
      </trkpt>
      <trkpt lat="45.89249" lon="6.44742">
        <ele>1656.6</ele>
        <time>2015-11-27T12:36:11Z</time>
      </trkpt>
      <trkpt lat="45.89242" lon="6.4474">
        <ele>1656.6</ele>
        <time>2015-11-27T12:36:21Z</time>
      </trkpt>
      <trkpt lat="45.89235" lon="6.44735">
        <ele>1658.6</ele>
        <time>2015-11-27T12:36:31Z</time>
      </trkpt>
      <trkpt lat="45.89227" lon="6.44733">
        <ele>1659.6</ele>
        <time>2015-11-27T12:36:41Z</time>
      </trkpt>
      <trkpt lat="45.8922" lon="6.4473">
        <ele>1660.6</ele>
        <time>2015-11-27T12:36:51Z</time>
      </trkpt>
      <trkpt lat="45.89213" lon="6.44726">
        <ele>1662.6</ele>
        <time>2015-11-27T12:37:01Z</time>
      </trkpt>
      <trkpt lat="45.89207" lon="6.44723">
        <ele>1663.6</ele>
        <time>2015-11-27T12:37:11Z</time>
      </trkpt>
      <trkpt lat="45.892" lon="6.44719">
        <ele>1665.6</ele>
        <time>2015-11-27T12:37:21Z</time>
      </trkpt>
      <trkpt lat="45.89193" lon="6.44715">
        <ele>1664.6</ele>
        <time>2015-11-27T12:37:31Z</time>
      </trkpt>
      <trkpt lat="45.89187" lon="6.44711">
        <ele>1666.6</ele>
        <time>2015-11-27T12:37:41Z</time>
      </trkpt>
      <trkpt lat="45.89179" lon="6.44705">
        <ele>1668.6</ele>
        <time>2015-11-27T12:37:51Z</time>
      </trkpt>
      <trkpt lat="45.89172" lon="6.447">
        <ele>1669.6</ele>
        <time>2015-11-27T12:38:01Z</time>
      </trkpt>
      <trkpt lat="45.89165" lon="6.44696">
        <ele>1670.6</ele>
        <time>2015-11-27T12:38:11Z</time>
      </trkpt>
      <trkpt lat="45.89157" lon="6.4469">
        <ele>1670.6</ele>
        <time>2015-11-27T12:38:21Z</time>
      </trkpt>
      <trkpt lat="45.89148" lon="6.44685">
        <ele>1673.6</ele>
        <time>2015-11-27T12:38:31Z</time>
      </trkpt>
      <trkpt lat="45.89141" lon="6.4468">
        <ele>1674.6</ele>
        <time>2015-11-27T12:38:41Z</time>
      </trkpt>
      <trkpt lat="45.89134" lon="6.44675">
        <ele>1675.6</ele>
        <time>2015-11-27T12:38:51Z</time>
      </trkpt>
      <trkpt lat="45.89126" lon="6.4467">
        <ele>1676.6</ele>
        <time>2015-11-27T12:39:01Z</time>
      </trkpt>
      <trkpt lat="45.89119" lon="6.44666">
        <ele>1677.6</ele>
        <time>2015-11-27T12:39:11Z</time>
      </trkpt>
      <trkpt lat="45.89111" lon="6.44661">
        <ele>1677.6</ele>
        <time>2015-11-27T12:39:21Z</time>
      </trkpt>
      <trkpt lat="45.89103" lon="6.44656">
        <ele>1679.6</ele>
        <time>2015-11-27T12:39:31Z</time>
      </trkpt>
      <trkpt lat="45.89096" lon="6.4465">
        <ele>1679.6</ele>
        <time>2015-11-27T12:39:41Z</time>
      </trkpt>
      <trkpt lat="45.89089" lon="6.44645">
        <ele>1680.6</ele>
        <time>2015-11-27T12:39:51Z</time>
      </trkpt>
      <trkpt lat="45.89082" lon="6.4464">
        <ele>1681.6</ele>
        <time>2015-11-27T12:40:01Z</time>
      </trkpt>
      <trkpt lat="45.89075" lon="6.44635">
        <ele>1683.6</ele>
        <time>2015-11-27T12:40:11Z</time>
      </trkpt>
      <trkpt lat="45.89067" lon="6.44629">
        <ele>1684.6</ele>
        <time>2015-11-27T12:40:21Z</time>
      </trkpt>
      <trkpt lat="45.89059" lon="6.44625">
        <ele>1685.6</ele>
        <time>2015-11-27T12:40:31Z</time>
      </trkpt>
      <trkpt lat="45.89051" lon="6.44621">
        <ele>1686.6</ele>
        <time>2015-11-27T12:40:41Z</time>
      </trkpt>
      <trkpt lat="45.89043" lon="6.44621">
        <ele>1687.6</ele>
        <time>2015-11-27T12:40:51Z</time>
      </trkpt>
      <trkpt lat="45.89035" lon="6.44621">
        <ele>1688.6</ele>
        <time>2015-11-27T12:41:01Z</time>
      </trkpt>
      <trkpt lat="45.89026" lon="6.44621">
        <ele>1689.6</ele>
        <time>2015-11-27T12:41:11Z</time>
      </trkpt>
      <trkpt lat="45.89019" lon="6.44622">
        <ele>1692.6</ele>
        <time>2015-11-27T12:41:21Z</time>
      </trkpt>
      <trkpt lat="45.89012" lon="6.44622">
        <ele>1693.6</ele>
        <time>2015-11-27T12:41:31Z</time>
      </trkpt>
      <trkpt lat="45.89005" lon="6.44622">
        <ele>1694.6</ele>
        <time>2015-11-27T12:41:41Z</time>
      </trkpt>
      <trkpt lat="45.88997" lon="6.44625">
        <ele>1693.6</ele>
        <time>2015-11-27T12:41:51Z</time>
      </trkpt>
      <trkpt lat="45.88988" lon="6.44628">
        <ele>1694.6</ele>
        <time>2015-11-27T12:42:01Z</time>
      </trkpt>
      <trkpt lat="45.88981" lon="6.44633">
        <ele>1696.6</ele>
        <time>2015-11-27T12:42:11Z</time>
      </trkpt>
      <trkpt lat="45.88974" lon="6.4464">
        <ele>1698.6</ele>
        <time>2015-11-27T12:42:21Z</time>
      </trkpt>
      <trkpt lat="45.88969" lon="6.44645">
        <ele>1700.6</ele>
        <time>2015-11-27T12:42:31Z</time>
      </trkpt>
      <trkpt lat="45.88963" lon="6.4465">
        <ele>1700.6</ele>
        <time>2015-11-27T12:42:41Z</time>
      </trkpt>
      <trkpt lat="45.88957" lon="6.44658">
        <ele>1703.6</ele>
        <time>2015-11-27T12:42:51Z</time>
      </trkpt>
      <trkpt lat="45.88952" lon="6.44666">
        <ele>1705.6</ele>
        <time>2015-11-27T12:43:01Z</time>
      </trkpt>
      <trkpt lat="45.88949" lon="6.44675">
        <ele>1704.6</ele>
        <time>2015-11-27T12:43:11Z</time>
      </trkpt>
      <trkpt lat="45.88943" lon="6.44684">
        <ele>1705.6</ele>
        <time>2015-11-27T12:43:21Z</time>
      </trkpt>
      <trkpt lat="45.88939" lon="6.44692">
        <ele>1707.6</ele>
        <time>2015-11-27T12:43:31Z</time>
      </trkpt>
      <trkpt lat="45.88937" lon="6.44701">
        <ele>1709.6</ele>
        <time>2015-11-27T12:43:41Z</time>
      </trkpt>
      <trkpt lat="45.88937" lon="6.44712">
        <ele>1710.6</ele>
        <time>2015-11-27T12:43:51Z</time>
      </trkpt>
      <trkpt lat="45.88937" lon="6.44724">
        <ele>1711.6</ele>
        <time>2015-11-27T12:44:01Z</time>
      </trkpt>
      <trkpt lat="45.88938" lon="6.44734">
        <ele>1713.6</ele>
        <time>2015-11-27T12:44:11Z</time>
      </trkpt>
      <trkpt lat="45.88939" lon="6.44743">
        <ele>1714.6</ele>
        <time>2015-11-27T12:44:21Z</time>
      </trkpt>
      <trkpt lat="45.8894" lon="6.44753">
        <ele>1715.6</ele>
        <time>2015-11-27T12:44:31Z</time>
      </trkpt>
      <trkpt lat="45.8894" lon="6.44764">
        <ele>1716.6</ele>
        <time>2015-11-27T12:44:41Z</time>
      </trkpt>
      <trkpt lat="45.88939" lon="6.44775">
        <ele>1720.6</ele>
        <time>2015-11-27T12:44:51Z</time>
      </trkpt>
      <trkpt lat="45.88937" lon="6.44785">
        <ele>1721.6</ele>
        <time>2015-11-27T12:45:01Z</time>
      </trkpt>
      <trkpt lat="45.88935" lon="6.44794">
        <ele>1723.6</ele>
        <time>2015-11-27T12:45:11Z</time>
      </trkpt>
      <trkpt lat="45.88932" lon="6.44803">
        <ele>1725.6</ele>
        <time>2015-11-27T12:45:21Z</time>
      </trkpt>
      <trkpt lat="45.88929" lon="6.44814">
        <ele>1725.6</ele>
        <time>2015-11-27T12:45:31Z</time>
      </trkpt>
      <trkpt lat="45.88925" lon="6.44824">
        <ele>1726.6</ele>
        <time>2015-11-27T12:45:41Z</time>
      </trkpt>
      <trkpt lat="45.88922" lon="6.44834">
        <ele>1728.6</ele>
        <time>2015-11-27T12:45:51Z</time>
      </trkpt>
      <trkpt lat="45.88917" lon="6.44843">
        <ele>1729.6</ele>
        <time>2015-11-27T12:46:01Z</time>
      </trkpt>
      <trkpt lat="45.88913" lon="6.44851">
        <ele>1730.6</ele>
        <time>2015-11-27T12:46:11Z</time>
      </trkpt>
      <trkpt lat="45.8891" lon="6.44862">
        <ele>1730.6</ele>
        <time>2015-11-27T12:46:21Z</time>
      </trkpt>
      <trkpt lat="45.88907" lon="6.44873">
        <ele>1730.6</ele>
        <time>2015-11-27T12:46:31Z</time>
      </trkpt>
      <trkpt lat="45.88902" lon="6.44884">
        <ele>1732.6</ele>
        <time>2015-11-27T12:46:41Z</time>
      </trkpt>
      <trkpt lat="45.88899" lon="6.44894">
        <ele>1733.6</ele>
        <time>2015-11-27T12:46:51Z</time>
      </trkpt>
      <trkpt lat="45.88896" lon="6.44904">
        <ele>1733.6</ele>
        <time>2015-11-27T12:47:01Z</time>
      </trkpt>
      <trkpt lat="45.88892" lon="6.44914">
        <ele>1734.6</ele>
        <time>2015-11-27T12:47:11Z</time>
      </trkpt>
      <trkpt lat="45.88891" lon="6.44926">
        <ele>1737.6</ele>
        <time>2015-11-27T12:47:21Z</time>
      </trkpt>
      <trkpt lat="45.8889" lon="6.44939">
        <ele>1735.6</ele>
        <time>2015-11-27T12:47:31Z</time>
      </trkpt>
      <trkpt lat="45.88886" lon="6.44949">
        <ele>1739.6</ele>
        <time>2015-11-27T12:47:41Z</time>
      </trkpt>
      <trkpt lat="45.88884" lon="6.44961">
        <ele>1741.6</ele>
        <time>2015-11-27T12:47:51Z</time>
      </trkpt>
      <trkpt lat="45.88884" lon="6.44973">
        <ele>1743.6</ele>
        <time>2015-11-27T12:48:01Z</time>
      </trkpt>
      <trkpt lat="45.88883" lon="6.44985">
        <ele>1742.6</ele>
        <time>2015-11-27T12:48:11Z</time>
      </trkpt>
      <trkpt lat="45.88882" lon="6.44996">
        <ele>1742.6</ele>
        <time>2015-11-27T12:48:21Z</time>
      </trkpt>
      <trkpt lat="45.88882" lon="6.45007">
        <ele>1742.6</ele>
        <time>2015-11-27T12:48:31Z</time>
      </trkpt>
      <trkpt lat="45.88884" lon="6.45017">
        <ele>1744.6</ele>
        <time>2015-11-27T12:48:41Z</time>
      </trkpt>
      <trkpt lat="45.88884" lon="6.45029">
        <ele>1747.6</ele>
        <time>2015-11-27T12:48:51Z</time>
      </trkpt>
      <trkpt lat="45.88885" lon="6.45041">
        <ele>1749.6</ele>
        <time>2015-11-27T12:49:01Z</time>
      </trkpt>
      <trkpt lat="45.88887" lon="6.45051">
        <ele>1751.6</ele>
        <time>2015-11-27T12:49:11Z</time>
      </trkpt>
      <trkpt lat="45.88889" lon="6.45061">
        <ele>1751.6</ele>
        <time>2015-11-27T12:49:21Z</time>
      </trkpt>
      <trkpt lat="45.8889" lon="6.45072">
        <ele>1755.6</ele>
        <time>2015-11-27T12:49:31Z</time>
      </trkpt>
      <trkpt lat="45.88892" lon="6.45083">
        <ele>1755.6</ele>
        <time>2015-11-27T12:49:41Z</time>
      </trkpt>
      <trkpt lat="45.88893" lon="6.45094">
        <ele>1755.6</ele>
        <time>2015-11-27T12:49:51Z</time>
      </trkpt>
      <trkpt lat="45.88893" lon="6.45106">
        <ele>1755.6</ele>
        <time>2015-11-27T12:50:01Z</time>
      </trkpt>
      <trkpt lat="45.88895" lon="6.45117">
        <ele>1756.6</ele>
        <time>2015-11-27T12:50:11Z</time>
      </trkpt>
      <trkpt lat="45.88896" lon="6.45127">
        <ele>1757.6</ele>
        <time>2015-11-27T12:50:21Z</time>
      </trkpt>
      <trkpt lat="45.88899" lon="6.45138">
        <ele>1759.6</ele>
        <time>2015-11-27T12:50:31Z</time>
      </trkpt>
      <trkpt lat="45.88901" lon="6.4515">
        <ele>1760.6</ele>
        <time>2015-11-27T12:50:41Z</time>
      </trkpt>
      <trkpt lat="45.88903" lon="6.4516">
        <ele>1761.6</ele>
        <time>2015-11-27T12:50:51Z</time>
      </trkpt>
      <trkpt lat="45.88904" lon="6.45169">
        <ele>1762.6</ele>
        <time>2015-11-27T12:51:01Z</time>
      </trkpt>
      <trkpt lat="45.88907" lon="6.45178">
        <ele>1763.6</ele>
        <time>2015-11-27T12:51:11Z</time>
      </trkpt>
      <trkpt lat="45.88909" lon="6.45189">
        <ele>1765.6</ele>
        <time>2015-11-27T12:51:21Z</time>
      </trkpt>
      <trkpt lat="45.88913" lon="6.45198">
        <ele>1767.6</ele>
        <time>2015-11-27T12:51:31Z</time>
      </trkpt>
      <trkpt lat="45.88915" lon="6.45207">
        <ele>1769.6</ele>
        <time>2015-11-27T12:51:41Z</time>
      </trkpt>
      <trkpt lat="45.88918" lon="6.45216">
        <ele>1771.6</ele>
        <time>2015-11-27T12:51:51Z</time>
      </trkpt>
      <trkpt lat="45.88921" lon="6.45224">
        <ele>1773.6</ele>
        <time>2015-11-27T12:52:01Z</time>
      </trkpt>
      <trkpt lat="45.88925" lon="6.45231">
        <ele>1775.6</ele>
        <time>2015-11-27T12:52:11Z</time>
      </trkpt>
      <trkpt lat="45.88927" lon="6.45239">
        <ele>1778.6</ele>
        <time>2015-11-27T12:52:21Z</time>
      </trkpt>
      <trkpt lat="45.8893" lon="6.45247">
        <ele>1778.6</ele>
        <time>2015-11-27T12:52:31Z</time>
      </trkpt>
      <trkpt lat="45.88932" lon="6.45256">
        <ele>1780.6</ele>
        <time>2015-11-27T12:52:41Z</time>
      </trkpt>
      <trkpt lat="45.88936" lon="6.45263">
        <ele>1781.6</ele>
        <time>2015-11-27T12:52:51Z</time>
      </trkpt>
      <trkpt lat="45.88939" lon="6.45271">
        <ele>1783.6</ele>
        <time>2015-11-27T12:53:01Z</time>
      </trkpt>
      <trkpt lat="45.88941" lon="6.45278">
        <ele>1784.6</ele>
        <time>2015-11-27T12:53:11Z</time>
      </trkpt>
      <trkpt lat="45.88944" lon="6.45285">
        <ele>1785.6</ele>
        <time>2015-11-27T12:53:21Z</time>
      </trkpt>
      <trkpt lat="45.88946" lon="6.45294">
        <ele>1788.6</ele>
        <time>2015-11-27T12:53:31Z</time>
      </trkpt>
      <trkpt lat="45.88948" lon="6.45301">
        <ele>1789.6</ele>
        <time>2015-11-27T12:53:41Z</time>
      </trkpt>
      <trkpt lat="45.88951" lon="6.45309">
        <ele>1790.6</ele>
        <time>2015-11-27T12:53:51Z</time>
      </trkpt>
      <trkpt lat="45.88952" lon="6.45316">
        <ele>1792.6</ele>
        <time>2015-11-27T12:54:01Z</time>
      </trkpt>
      <trkpt lat="45.88954" lon="6.45323">
        <ele>1794.6</ele>
        <time>2015-11-27T12:54:11Z</time>
      </trkpt>
      <trkpt lat="45.88956" lon="6.4533">
        <ele>1794.6</ele>
        <time>2015-11-27T12:54:21Z</time>
      </trkpt>
      <trkpt lat="45.88959" lon="6.45338">
        <ele>1795.6</ele>
        <time>2015-11-27T12:54:31Z</time>
      </trkpt>
      <trkpt lat="45.8896" lon="6.45348">
        <ele>1798.6</ele>
        <time>2015-11-27T12:54:41Z</time>
      </trkpt>
      <trkpt lat="45.88962" lon="6.45356">
        <ele>1800.6</ele>
        <time>2015-11-27T12:54:51Z</time>
      </trkpt>
      <trkpt lat="45.88964" lon="6.45366">
        <ele>1803.6</ele>
        <time>2015-11-27T12:55:01Z</time>
      </trkpt>
      <trkpt lat="45.88966" lon="6.45374">
        <ele>1804.6</ele>
        <time>2015-11-27T12:55:11Z</time>
      </trkpt>
      <trkpt lat="45.88968" lon="6.45382">
        <ele>1803.6</ele>
        <time>2015-11-27T12:55:21Z</time>
      </trkpt>
      <trkpt lat="45.8897" lon="6.4539">
        <ele>1804.6</ele>
        <time>2015-11-27T12:55:31Z</time>
      </trkpt>
      <trkpt lat="45.88972" lon="6.45398">
        <ele>1805.6</ele>
        <time>2015-11-27T12:55:41Z</time>
      </trkpt>
      <trkpt lat="45.88974" lon="6.45407">
        <ele>1806.6</ele>
        <time>2015-11-27T12:55:51Z</time>
      </trkpt>
      <trkpt lat="45.88976" lon="6.45414">
        <ele>1808.6</ele>
        <time>2015-11-27T12:56:01Z</time>
      </trkpt>
      <trkpt lat="45.88978" lon="6.45422">
        <ele>1809.6</ele>
        <time>2015-11-27T12:56:11Z</time>
      </trkpt>
      <trkpt lat="45.8898" lon="6.45431">
        <ele>1811.6</ele>
        <time>2015-11-27T12:56:21Z</time>
      </trkpt>
      <trkpt lat="45.88983" lon="6.45438">
        <ele>1814.6</ele>
        <time>2015-11-27T12:56:31Z</time>
      </trkpt>
      <trkpt lat="45.88986" lon="6.45446">
        <ele>1815.6</ele>
        <time>2015-11-27T12:56:41Z</time>
      </trkpt>
      <trkpt lat="45.88989" lon="6.45453">
        <ele>1817.6</ele>
        <time>2015-11-27T12:56:51Z</time>
      </trkpt>
      <trkpt lat="45.88991" lon="6.45461">
        <ele>1819.6</ele>
        <time>2015-11-27T12:57:01Z</time>
      </trkpt>
      <trkpt lat="45.88995" lon="6.45468">
        <ele>1822.6</ele>
        <time>2015-11-27T12:57:11Z</time>
      </trkpt>
      <trkpt lat="45.88999" lon="6.45474">
        <ele>1825.6</ele>
        <time>2015-11-27T12:57:21Z</time>
      </trkpt>
      <trkpt lat="45.89001" lon="6.45482">
        <ele>1826.6</ele>
        <time>2015-11-27T12:57:31Z</time>
      </trkpt>
      <trkpt lat="45.89005" lon="6.4549">
        <ele>1829.6</ele>
        <time>2015-11-27T12:57:41Z</time>
      </trkpt>
      <trkpt lat="45.89009" lon="6.45497">
        <ele>1829.6</ele>
        <time>2015-11-27T12:57:51Z</time>
      </trkpt>
      <trkpt lat="45.89013" lon="6.45507">
        <ele>1828.6</ele>
        <time>2015-11-27T12:58:01Z</time>
      </trkpt>
      <trkpt lat="45.89015" lon="6.45517">
        <ele>1827.6</ele>
        <time>2015-11-27T12:58:11Z</time>
      </trkpt>
      <trkpt lat="45.89017" lon="6.45525">
        <ele>1829.6</ele>
        <time>2015-11-27T12:58:21Z</time>
      </trkpt>
      <trkpt lat="45.89018" lon="6.45533">
        <ele>1830.6</ele>
        <time>2015-11-27T12:58:31Z</time>
      </trkpt>
      <trkpt lat="45.89019" lon="6.45541">
        <ele>1831.6</ele>
        <time>2015-11-27T12:58:41Z</time>
      </trkpt>
      <trkpt lat="45.89022" lon="6.45548">
        <ele>1830.6</ele>
        <time>2015-11-27T12:58:51Z</time>
      </trkpt>
      <trkpt lat="45.89024" lon="6.45556">
        <ele>1829.6</ele>
        <time>2015-11-27T12:59:01Z</time>
      </trkpt>
      <trkpt lat="45.89025" lon="6.45565">
        <ele>1830.6</ele>
        <time>2015-11-27T12:59:11Z</time>
      </trkpt>
      <trkpt lat="45.89026" lon="6.45574">
        <ele>1830.6</ele>
        <time>2015-11-27T12:59:21Z</time>
      </trkpt>
      <trkpt lat="45.89026" lon="6.45582">
        <ele>1832.6</ele>
        <time>2015-11-27T12:59:31Z</time>
      </trkpt>
      <trkpt lat="45.89026" lon="6.4559">
        <ele>1833.6</ele>
        <time>2015-11-27T12:59:41Z</time>
      </trkpt>
      <trkpt lat="45.89028" lon="6.45599">
        <ele>1837.6</ele>
        <time>2015-11-27T12:59:51Z</time>
      </trkpt>
      <trkpt lat="45.89029" lon="6.45606">
        <ele>1836.6</ele>
        <time>2015-11-27T13:00:01Z</time>
      </trkpt>
      <trkpt lat="45.89031" lon="6.45614">
        <ele>1837.6</ele>
        <time>2015-11-27T13:00:11Z</time>
      </trkpt>
      <trkpt lat="45.89031" lon="6.45623">
        <ele>1840.6</ele>
        <time>2015-11-27T13:00:21Z</time>
      </trkpt>
      <trkpt lat="45.89032" lon="6.45631">
        <ele>1846.6</ele>
        <time>2015-11-27T13:00:31Z</time>
      </trkpt>
      <trkpt lat="45.89031" lon="6.4564">
        <ele>1849.6</ele>
        <time>2015-11-27T13:00:41Z</time>
      </trkpt>
      <trkpt lat="45.89031" lon="6.45648">
        <ele>1852.6</ele>
        <time>2015-11-27T13:00:51Z</time>
      </trkpt>
      <trkpt lat="45.89032" lon="6.45656">
        <ele>1855.6</ele>
        <time>2015-11-27T13:01:01Z</time>
      </trkpt>
      <trkpt lat="45.89032" lon="6.45665">
        <ele>1857.6</ele>
        <time>2015-11-27T13:01:11Z</time>
      </trkpt>
      <trkpt lat="45.89033" lon="6.45674">
        <ele>1857.6</ele>
        <time>2015-11-27T13:01:21Z</time>
      </trkpt>
      <trkpt lat="45.89035" lon="6.45681">
        <ele>1855.6</ele>
        <time>2015-11-27T13:01:31Z</time>
      </trkpt>
      <trkpt lat="45.89036" lon="6.45689">
        <ele>1856.6</ele>
        <time>2015-11-27T13:01:41Z</time>
      </trkpt>
      <trkpt lat="45.89037" lon="6.45697">
        <ele>1860.6</ele>
        <time>2015-11-27T13:01:51Z</time>
      </trkpt>
      <trkpt lat="45.89037" lon="6.45705">
        <ele>1863.6</ele>
        <time>2015-11-27T13:02:01Z</time>
      </trkpt>
      <trkpt lat="45.89037" lon="6.45712">
        <ele>1864.6</ele>
        <time>2015-11-27T13:02:11Z</time>
      </trkpt>
      <trkpt lat="45.89038" lon="6.4572">
        <ele>1866.6</ele>
        <time>2015-11-27T13:02:21Z</time>
      </trkpt>
      <trkpt lat="45.89038" lon="6.45728">
        <ele>1868.6</ele>
        <time>2015-11-27T13:02:31Z</time>
      </trkpt>
      <trkpt lat="45.89039" lon="6.45736">
        <ele>1869.6</ele>
        <time>2015-11-27T13:02:41Z</time>
      </trkpt>
      <trkpt lat="45.89041" lon="6.45744">
        <ele>1871.6</ele>
        <time>2015-11-27T13:02:51Z</time>
      </trkpt>
      <trkpt lat="45.89042" lon="6.45751">
        <ele>1874.6</ele>
        <time>2015-11-27T13:03:01Z</time>
      </trkpt>
      <trkpt lat="45.89044" lon="6.45758">
        <ele>1876.6</ele>
        <time>2015-11-27T13:03:11Z</time>
      </trkpt>
      <trkpt lat="45.89045" lon="6.45767">
        <ele>1879.6</ele>
        <time>2015-11-27T13:03:21Z</time>
      </trkpt>
      <trkpt lat="45.89047" lon="6.45774">
        <ele>1881.6</ele>
        <time>2015-11-27T13:03:31Z</time>
      </trkpt>
      <trkpt lat="45.8905" lon="6.45781">
        <ele>1883.6</ele>
        <time>2015-11-27T13:03:41Z</time>
      </trkpt>
      <trkpt lat="45.8905" lon="6.45787">
        <ele>1883.6</ele>
        <time>2015-11-27T13:03:51Z</time>
      </trkpt>
      <trkpt lat="45.89052" lon="6.45794">
        <ele>1883.6</ele>
        <time>2015-11-27T13:04:01Z</time>
      </trkpt>
      <trkpt lat="45.89054" lon="6.45801">
        <ele>1886.6</ele>
        <time>2015-11-27T13:04:11Z</time>
      </trkpt>
      <trkpt lat="45.89056" lon="6.45808">
        <ele>1887.6</ele>
        <time>2015-11-27T13:04:21Z</time>
      </trkpt>
      <trkpt lat="45.89058" lon="6.45813">
        <ele>1889.6</ele>
        <time>2015-11-27T13:04:31Z</time>
      </trkpt>
      <trkpt lat="45.8906" lon="6.45821">
        <ele>1889.6</ele>
        <time>2015-11-27T13:04:41Z</time>
      </trkpt>
      <trkpt lat="45.89062" lon="6.45829">
        <ele>1889.6</ele>
        <time>2015-11-27T13:04:51Z</time>
      </trkpt>
      <trkpt lat="45.89063" lon="6.45837">
        <ele>1890.6</ele>
        <time>2015-11-27T13:05:01Z</time>
      </trkpt>
      <trkpt lat="45.89064" lon="6.45845">
        <ele>1891.6</ele>
        <time>2015-11-27T13:05:11Z</time>
      </trkpt>
      <trkpt lat="45.89064" lon="6.45854">
        <ele>1891.6</ele>
        <time>2015-11-27T13:05:21Z</time>
      </trkpt>
      <trkpt lat="45.89064" lon="6.45863">
        <ele>1892.6</ele>
        <time>2015-11-27T13:05:31Z</time>
      </trkpt>
      <trkpt lat="45.89064" lon="6.45873">
        <ele>1896.6</ele>
        <time>2015-11-27T13:05:41Z</time>
      </trkpt>
      <trkpt lat="45.89063" lon="6.45883">
        <ele>1896.6</ele>
        <time>2015-11-27T13:05:51Z</time>
      </trkpt>
      <trkpt lat="45.89063" lon="6.45893">
        <ele>1897.6</ele>
        <time>2015-11-27T13:06:01Z</time>
      </trkpt>
      <trkpt lat="45.89061" lon="6.45905">
        <ele>1898.6</ele>
        <time>2015-11-27T13:06:11Z</time>
      </trkpt>
      <trkpt lat="45.8906" lon="6.45916">
        <ele>1899.6</ele>
        <time>2015-11-27T13:06:21Z</time>
      </trkpt>
      <trkpt lat="45.89059" lon="6.45926">
        <ele>1900.6</ele>
        <time>2015-11-27T13:06:31Z</time>
      </trkpt>
      <trkpt lat="45.89057" lon="6.45935">
        <ele>1903.6</ele>
        <time>2015-11-27T13:06:41Z</time>
      </trkpt>
      <trkpt lat="45.89056" lon="6.45944">
        <ele>1903.6</ele>
        <time>2015-11-27T13:06:51Z</time>
      </trkpt>
      <trkpt lat="45.89054" lon="6.45954">
        <ele>1904.6</ele>
        <time>2015-11-27T13:07:01Z</time>
      </trkpt>
      <trkpt lat="45.89051" lon="6.45964">
        <ele>1905.6</ele>
        <time>2015-11-27T13:07:11Z</time>
      </trkpt>
      <trkpt lat="45.89049" lon="6.45973">
        <ele>1906.6</ele>
        <time>2015-11-27T13:07:21Z</time>
      </trkpt>
      <trkpt lat="45.89048" lon="6.45981">
        <ele>1906.6</ele>
        <time>2015-11-27T13:07:31Z</time>
      </trkpt>
      <trkpt lat="45.89047" lon="6.4599">
        <ele>1908.6</ele>
        <time>2015-11-27T13:07:41Z</time>
      </trkpt>
      <trkpt lat="45.89045" lon="6.45998">
        <ele>1909.6</ele>
        <time>2015-11-27T13:07:51Z</time>
      </trkpt>
      <trkpt lat="45.89043" lon="6.46005">
        <ele>1910.6</ele>
        <time>2015-11-27T13:08:01Z</time>
      </trkpt>
      <trkpt lat="45.89039" lon="6.46013">
        <ele>1914.6</ele>
        <time>2015-11-27T13:08:11Z</time>
      </trkpt>
      <trkpt lat="45.89036" lon="6.46021">
        <ele>1916.6</ele>
        <time>2015-11-27T13:08:21Z</time>
      </trkpt>
      <trkpt lat="45.89033" lon="6.46028">
        <ele>1917.6</ele>
        <time>2015-11-27T13:08:31Z</time>
      </trkpt>
      <trkpt lat="45.89029" lon="6.46033">
        <ele>1920.6</ele>
        <time>2015-11-27T13:08:41Z</time>
      </trkpt>
      <trkpt lat="45.89025" lon="6.46034">
        <ele>1922.6</ele>
        <time>2015-11-27T13:08:51Z</time>
      </trkpt>
      <trkpt lat="45.89021" lon="6.46038">
        <ele>1923.6</ele>
        <time>2015-11-27T13:09:01Z</time>
      </trkpt>
      <trkpt lat="45.89016" lon="6.46042">
        <ele>1924.6</ele>
        <time>2015-11-27T13:09:11Z</time>
      </trkpt>
      <trkpt lat="45.89012" lon="6.46047">
        <ele>1926.6</ele>
        <time>2015-11-27T13:09:21Z</time>
      </trkpt>
      <trkpt lat="45.89008" lon="6.46052">
        <ele>1928.6</ele>
        <time>2015-11-27T13:09:31Z</time>
      </trkpt>
      <trkpt lat="45.89003" lon="6.46056">
        <ele>1929.6</ele>
        <time>2015-11-27T13:09:41Z</time>
      </trkpt>
      <trkpt lat="45.88999" lon="6.46061">
        <ele>1931.6</ele>
        <time>2015-11-27T13:09:51Z</time>
      </trkpt>
      <trkpt lat="45.88995" lon="6.46065">
        <ele>1932.6</ele>
        <time>2015-11-27T13:10:01Z</time>
      </trkpt>
      <trkpt lat="45.88991" lon="6.46069">
        <ele>1933.6</ele>
        <time>2015-11-27T13:10:11Z</time>
      </trkpt>
      <trkpt lat="45.88987" lon="6.46074">
        <ele>1935.6</ele>
        <time>2015-11-27T13:10:21Z</time>
      </trkpt>
      <trkpt lat="45.88984" lon="6.46077">
        <ele>1939.6</ele>
        <time>2015-11-27T13:10:31Z</time>
      </trkpt>
      <trkpt lat="45.88981" lon="6.46081">
        <ele>1942.6</ele>
        <time>2015-11-27T13:10:41Z</time>
      </trkpt>
      <trkpt lat="45.88977" lon="6.46086">
        <ele>1944.6</ele>
        <time>2015-11-27T13:10:51Z</time>
      </trkpt>
      <trkpt lat="45.88974" lon="6.46088">
        <ele>1948.6</ele>
        <time>2015-11-27T13:11:01Z</time>
      </trkpt>
      <trkpt lat="45.88974" lon="6.46092">
        <ele>1949.6</ele>
        <time>2015-11-27T13:11:11Z</time>
      </trkpt>
      <trkpt lat="45.88978" lon="6.46099">
        <ele>1951.6</ele>
        <time>2015-11-27T13:11:21Z</time>
      </trkpt>
      <trkpt lat="45.88981" lon="6.46105">
        <ele>1952.6</ele>
        <time>2015-11-27T13:11:31Z</time>
      </trkpt>
      <trkpt lat="45.88984" lon="6.46112">
        <ele>1955.6</ele>
        <time>2015-11-27T13:11:41Z</time>
      </trkpt>
      <trkpt lat="45.88986" lon="6.46118">
        <ele>1957.6</ele>
        <time>2015-11-27T13:11:51Z</time>
      </trkpt>
      <trkpt lat="45.88989" lon="6.46124">
        <ele>1957.6</ele>
        <time>2015-11-27T13:12:01Z</time>
      </trkpt>
      <trkpt lat="45.88991" lon="6.46129">
        <ele>1960.6</ele>
        <time>2015-11-27T13:12:11Z</time>
      </trkpt>
      <trkpt lat="45.88993" lon="6.46134">
        <ele>1960.6</ele>
        <time>2015-11-27T13:12:21Z</time>
      </trkpt>
      <trkpt lat="45.88996" lon="6.46139">
        <ele>1962.6</ele>
        <time>2015-11-27T13:12:31Z</time>
      </trkpt>
      <trkpt lat="45.88999" lon="6.46146">
        <ele>1963.6</ele>
        <time>2015-11-27T13:12:41Z</time>
      </trkpt>
      <trkpt lat="45.89001" lon="6.46151">
        <ele>1964.6</ele>
        <time>2015-11-27T13:12:51Z</time>
      </trkpt>
      <trkpt lat="45.89003" lon="6.46158">
        <ele>1966.6</ele>
        <time>2015-11-27T13:13:01Z</time>
      </trkpt>
      <trkpt lat="45.89005" lon="6.46164">
        <ele>1969.6</ele>
        <time>2015-11-27T13:13:11Z</time>
      </trkpt>
      <trkpt lat="45.89008" lon="6.46169">
        <ele>1970.6</ele>
        <time>2015-11-27T13:13:21Z</time>
      </trkpt>
      <trkpt lat="45.8901" lon="6.46175">
        <ele>1972.6</ele>
        <time>2015-11-27T13:13:31Z</time>
      </trkpt>
      <trkpt lat="45.89014" lon="6.4618">
        <ele>1974.6</ele>
        <time>2015-11-27T13:13:41Z</time>
      </trkpt>
      <trkpt lat="45.89016" lon="6.46186">
        <ele>1976.6</ele>
        <time>2015-11-27T13:13:51Z</time>
      </trkpt>
      <trkpt lat="45.89019" lon="6.46193">
        <ele>1978.6</ele>
        <time>2015-11-27T13:14:01Z</time>
      </trkpt>
      <trkpt lat="45.89022" lon="6.46197">
        <ele>1979.6</ele>
        <time>2015-11-27T13:14:11Z</time>
      </trkpt>
      <trkpt lat="45.89024" lon="6.46203">
        <ele>1981.6</ele>
        <time>2015-11-27T13:14:21Z</time>
      </trkpt>
      <trkpt lat="45.89028" lon="6.46209">
        <ele>1983.6</ele>
        <time>2015-11-27T13:14:31Z</time>
      </trkpt>
      <trkpt lat="45.8903" lon="6.46216">
        <ele>1985.6</ele>
        <time>2015-11-27T13:14:41Z</time>
      </trkpt>
      <trkpt lat="45.89034" lon="6.46221">
        <ele>1987.6</ele>
        <time>2015-11-27T13:14:51Z</time>
      </trkpt>
      <trkpt lat="45.89036" lon="6.46228">
        <ele>1990.6</ele>
        <time>2015-11-27T13:15:01Z</time>
      </trkpt>
      <trkpt lat="45.89036" lon="6.46233">
        <ele>1992.6</ele>
        <time>2015-11-27T13:15:11Z</time>
      </trkpt>
      <trkpt lat="45.89032" lon="6.46237">
        <ele>1992.6</ele>
        <time>2015-11-27T13:15:21Z</time>
      </trkpt>
      <trkpt lat="45.89031" lon="6.46243">
        <ele>1993.6</ele>
        <time>2015-11-27T13:15:31Z</time>
      </trkpt>
      <trkpt lat="45.89034" lon="6.4625">
        <ele>1995.6</ele>
        <time>2015-11-27T13:15:41Z</time>
      </trkpt>
      <trkpt lat="45.89039" lon="6.46257">
        <ele>1998.6</ele>
        <time>2015-11-27T13:15:51Z</time>
      </trkpt>
      <trkpt lat="45.89043" lon="6.46263">
        <ele>1999.6</ele>
        <time>2015-11-27T13:16:01Z</time>
      </trkpt>
      <trkpt lat="45.89048" lon="6.46268">
        <ele>2002.6</ele>
        <time>2015-11-27T13:16:11Z</time>
      </trkpt>
      <trkpt lat="45.89055" lon="6.46269">
        <ele>2001.6</ele>
        <time>2015-11-27T13:16:21Z</time>
      </trkpt>
      <trkpt lat="45.89062" lon="6.46269">
        <ele>2001.6</ele>
        <time>2015-11-27T13:16:31Z</time>
      </trkpt>
      <trkpt lat="45.89067" lon="6.4627">
        <ele>2002.6</ele>
        <time>2015-11-27T13:16:41Z</time>
      </trkpt>
      <trkpt lat="45.89072" lon="6.46272">
        <ele>2004.6</ele>
        <time>2015-11-27T13:16:51Z</time>
      </trkpt>
      <trkpt lat="45.89078" lon="6.46274">
        <ele>2006.6</ele>
        <time>2015-11-27T13:17:01Z</time>
      </trkpt>
      <trkpt lat="45.89085" lon="6.46273">
        <ele>2007.6</ele>
        <time>2015-11-27T13:17:11Z</time>
      </trkpt>
      <trkpt lat="45.8909" lon="6.46275">
        <ele>2007.6</ele>
        <time>2015-11-27T13:17:21Z</time>
      </trkpt>
      <trkpt lat="45.89095" lon="6.46278">
        <ele>2010.6</ele>
        <time>2015-11-27T13:17:31Z</time>
      </trkpt>
      <trkpt lat="45.89094" lon="6.46281">
        <ele>2010.6</ele>
        <time>2015-11-27T13:17:41Z</time>
      </trkpt>
      <trkpt lat="45.89091" lon="6.46288">
        <ele>2010.6</ele>
        <time>2015-11-27T13:17:51Z</time>
      </trkpt>
      <trkpt lat="45.89087" lon="6.46294">
        <ele>2011.6</ele>
        <time>2015-11-27T13:18:01Z</time>
      </trkpt>
      <trkpt lat="45.89083" lon="6.46299">
        <ele>2012.6</ele>
        <time>2015-11-27T13:18:11Z</time>
      </trkpt>
      <trkpt lat="45.89078" lon="6.46305">
        <ele>2016.6</ele>
        <time>2015-11-27T13:18:21Z</time>
      </trkpt>
      <trkpt lat="45.89075" lon="6.46309">
        <ele>2017.6</ele>
        <time>2015-11-27T13:18:31Z</time>
      </trkpt>
      <trkpt lat="45.89072" lon="6.46316">
        <ele>2018.6</ele>
        <time>2015-11-27T13:18:41Z</time>
      </trkpt>
      <trkpt lat="45.8907" lon="6.46323">
        <ele>2017.6</ele>
        <time>2015-11-27T13:18:51Z</time>
      </trkpt>
      <trkpt lat="45.8907" lon="6.46323">
        <ele>2017.6</ele>
        <time>2015-11-27T13:19:01Z</time>
      </trkpt>
      <trkpt lat="45.89069" lon="6.46329">
        <ele>2019.6</ele>
        <time>2015-11-27T13:19:11Z</time>
      </trkpt>
      <trkpt lat="45.89068" lon="6.46333">
        <ele>2018.6</ele>
        <time>2015-11-27T13:19:21Z</time>
      </trkpt>
      <trkpt lat="45.89069" lon="6.46333">
        <ele>2019.6</ele>
        <time>2015-11-27T13:19:31Z</time>
      </trkpt>
      <trkpt lat="45.89069" lon="6.46332">
        <ele>2021.6</ele>
        <time>2015-11-27T13:19:41Z</time>
      </trkpt>
      <trkpt lat="45.89069" lon="6.46333">
        <ele>2021.6</ele>
        <time>2015-11-27T13:19:51Z</time>
      </trkpt>
      <trkpt lat="45.89069" lon="6.46333">
        <ele>2022.6</ele>
        <time>2015-11-27T13:20:01Z</time>
      </trkpt>
      <trkpt lat="45.89069" lon="6.46333">
        <ele>2022.6</ele>
        <time>2015-11-27T13:20:11Z</time>
      </trkpt>
      <trkpt lat="45.89069" lon="6.46333">
        <ele>2022.6</ele>
        <time>2015-11-27T13:20:21Z</time>
      </trkpt>
      <trkpt lat="45.8907" lon="6.46332">
        <ele>2022.6</ele>
        <time>2015-11-27T13:20:31Z</time>
      </trkpt>
      <trkpt lat="45.8907" lon="6.46332">
        <ele>2022.6</ele>
        <time>2015-11-27T13:20:41Z</time>
      </trkpt>
      <trkpt lat="45.8907" lon="6.46332">
        <ele>2022.6</ele>
        <time>2015-11-27T13:20:51Z</time>
      </trkpt>
      <trkpt lat="45.8907" lon="6.46332">
        <ele>2022.6</ele>
        <time>2015-11-27T13:21:01Z</time>
      </trkpt>
      <trkpt lat="45.8907" lon="6.46332">
        <ele>2022.6</ele>
        <time>2015-11-27T13:21:11Z</time>
      </trkpt>
      <trkpt lat="45.8907" lon="6.46332">
        <ele>2022.6</ele>
        <time>2015-11-27T13:21:21Z</time>
      </trkpt>
      <trkpt lat="45.8907" lon="6.46332">
        <ele>2022.6</ele>
        <time>2015-11-27T13:21:31Z</time>
      </trkpt>
      <trkpt lat="45.8907" lon="6.46332">
        <ele>2022.6</ele>
        <time>2015-11-27T13:21:41Z</time>
      </trkpt>
      <trkpt lat="45.8907" lon="6.46332">
        <ele>2022.6</ele>
        <time>2015-11-27T13:21:51Z</time>
      </trkpt>
      <trkpt lat="45.8907" lon="6.46332">
        <ele>2022.6</ele>
        <time>2015-11-27T13:22:01Z</time>
      </trkpt>
      <trkpt lat="45.8907" lon="6.46332">
        <ele>2022.6</ele>
        <time>2015-11-27T13:22:11Z</time>
      </trkpt>
      <trkpt lat="45.8907" lon="6.46332">
        <ele>2022.6</ele>
        <time>2015-11-27T13:22:21Z</time>
      </trkpt>
      <trkpt lat="45.8907" lon="6.46332">
        <ele>2022.6</ele>
        <time>2015-11-27T13:22:31Z</time>
      </trkpt>
      <trkpt lat="45.8907" lon="6.46332">
        <ele>2022.6</ele>
        <time>2015-11-27T13:22:41Z</time>
      </trkpt>
      <trkpt lat="45.8907" lon="6.46332">
        <ele>2022.6</ele>
        <time>2015-11-27T13:22:51Z</time>
      </trkpt>
      <trkpt lat="45.8907" lon="6.46332">
        <ele>2022.6</ele>
        <time>2015-11-27T13:23:01Z</time>
      </trkpt>
      <trkpt lat="45.8907" lon="6.46334">
        <ele>2021.6</ele>
        <time>2015-11-27T13:23:11Z</time>
      </trkpt>
      <trkpt lat="45.89067" lon="6.46339">
        <ele>2019.6</ele>
        <time>2015-11-27T13:23:21Z</time>
      </trkpt>
      <trkpt lat="45.89061" lon="6.46346">
        <ele>2020.6</ele>
        <time>2015-11-27T13:23:31Z</time>
      </trkpt>
      <trkpt lat="45.89057" lon="6.46351">
        <ele>2022.6</ele>
        <time>2015-11-27T13:23:41Z</time>
      </trkpt>
      <trkpt lat="45.89052" lon="6.46355">
        <ele>2028.6</ele>
        <time>2015-11-27T13:23:51Z</time>
      </trkpt>
      <trkpt lat="45.89048" lon="6.46362">
        <ele>2030.6</ele>
        <time>2015-11-27T13:24:01Z</time>
      </trkpt>
      <trkpt lat="45.89045" lon="6.46365">
        <ele>2029.6</ele>
        <time>2015-11-27T13:24:11Z</time>
      </trkpt>
      <trkpt lat="45.8904" lon="6.46369">
        <ele>2030.6</ele>
        <time>2015-11-27T13:24:21Z</time>
      </trkpt>
      <trkpt lat="45.89035" lon="6.46373">
        <ele>2031.6</ele>
        <time>2015-11-27T13:24:31Z</time>
      </trkpt>
      <trkpt lat="45.8903" lon="6.46379">
        <ele>2034.6</ele>
        <time>2015-11-27T13:24:41Z</time>
      </trkpt>
      <trkpt lat="45.89025" lon="6.46384">
        <ele>2036.6</ele>
        <time>2015-11-27T13:24:51Z</time>
      </trkpt>
      <trkpt lat="45.8902" lon="6.46385">
        <ele>2038.6</ele>
        <time>2015-11-27T13:25:01Z</time>
      </trkpt>
      <trkpt lat="45.89014" lon="6.46386">
        <ele>2041.6</ele>
        <time>2015-11-27T13:25:11Z</time>
      </trkpt>
      <trkpt lat="45.89009" lon="6.46386">
        <ele>2038.6</ele>
        <time>2015-11-27T13:25:21Z</time>
      </trkpt>
      <trkpt lat="45.89003" lon="6.46388">
        <ele>2038.6</ele>
        <time>2015-11-27T13:25:31Z</time>
      </trkpt>
      <trkpt lat="45.88998" lon="6.4639">
        <ele>2039.6</ele>
        <time>2015-11-27T13:25:41Z</time>
      </trkpt>
      <trkpt lat="45.88992" lon="6.46392">
        <ele>2040.6</ele>
        <time>2015-11-27T13:25:51Z</time>
      </trkpt>
      <trkpt lat="45.88988" lon="6.46395">
        <ele>2042.6</ele>
        <time>2015-11-27T13:26:01Z</time>
      </trkpt>
      <trkpt lat="45.88983" lon="6.46399">
        <ele>2043.6</ele>
        <time>2015-11-27T13:26:11Z</time>
      </trkpt>
      <trkpt lat="45.88983" lon="6.46406">
        <ele>2045.6</ele>
        <time>2015-11-27T13:26:21Z</time>
      </trkpt>
      <trkpt lat="45.88987" lon="6.46412">
        <ele>2048.6</ele>
        <time>2015-11-27T13:26:31Z</time>
      </trkpt>
      <trkpt lat="45.88991" lon="6.46418">
        <ele>2051.6</ele>
        <time>2015-11-27T13:26:41Z</time>
      </trkpt>
      <trkpt lat="45.88997" lon="6.46423">
        <ele>2054.6</ele>
        <time>2015-11-27T13:26:51Z</time>
      </trkpt>
      <trkpt lat="45.89001" lon="6.46429">
        <ele>2056.6</ele>
        <time>2015-11-27T13:27:01Z</time>
      </trkpt>
      <trkpt lat="45.89005" lon="6.46434">
        <ele>2057.6</ele>
        <time>2015-11-27T13:27:11Z</time>
      </trkpt>
      <trkpt lat="45.8901" lon="6.4644">
        <ele>2058.6</ele>
        <time>2015-11-27T13:27:21Z</time>
      </trkpt>
      <trkpt lat="45.89013" lon="6.46447">
        <ele>2060.6</ele>
        <time>2015-11-27T13:27:31Z</time>
      </trkpt>
      <trkpt lat="45.89017" lon="6.46452">
        <ele>2062.6</ele>
        <time>2015-11-27T13:27:41Z</time>
      </trkpt>
      <trkpt lat="45.89022" lon="6.46458">
        <ele>2063.6</ele>
        <time>2015-11-27T13:27:51Z</time>
      </trkpt>
      <trkpt lat="45.89027" lon="6.46465">
        <ele>2064.6</ele>
        <time>2015-11-27T13:28:01Z</time>
      </trkpt>
      <trkpt lat="45.89031" lon="6.46471">
        <ele>2067.6</ele>
        <time>2015-11-27T13:28:11Z</time>
      </trkpt>
      <trkpt lat="45.89035" lon="6.46476">
        <ele>2069.6</ele>
        <time>2015-11-27T13:28:21Z</time>
      </trkpt>
      <trkpt lat="45.89039" lon="6.46481">
        <ele>2071.6</ele>
        <time>2015-11-27T13:28:31Z</time>
      </trkpt>
      <trkpt lat="45.89043" lon="6.46486">
        <ele>2072.6</ele>
        <time>2015-11-27T13:28:41Z</time>
      </trkpt>
      <trkpt lat="45.89047" lon="6.46491">
        <ele>2073.6</ele>
        <time>2015-11-27T13:28:51Z</time>
      </trkpt>
      <trkpt lat="45.89051" lon="6.46498">
        <ele>2075.6</ele>
        <time>2015-11-27T13:29:01Z</time>
      </trkpt>
      <trkpt lat="45.89055" lon="6.46504">
        <ele>2077.6</ele>
        <time>2015-11-27T13:29:11Z</time>
      </trkpt>
      <trkpt lat="45.89059" lon="6.46508">
        <ele>2079.6</ele>
        <time>2015-11-27T13:29:21Z</time>
      </trkpt>
      <trkpt lat="45.89063" lon="6.46514">
        <ele>2078.6</ele>
        <time>2015-11-27T13:29:31Z</time>
      </trkpt>
      <trkpt lat="45.8906" lon="6.46515">
        <ele>2078.6</ele>
        <time>2015-11-27T13:29:41Z</time>
      </trkpt>
      <trkpt lat="45.89054" lon="6.46516">
        <ele>2079.6</ele>
        <time>2015-11-27T13:29:51Z</time>
      </trkpt>
      <trkpt lat="45.8905" lon="6.46519">
        <ele>2079.6</ele>
        <time>2015-11-27T13:30:01Z</time>
      </trkpt>
      <trkpt lat="45.89046" lon="6.46521">
        <ele>2078.6</ele>
        <time>2015-11-27T13:30:11Z</time>
      </trkpt>
      <trkpt lat="45.89041" lon="6.46524">
        <ele>2077.6</ele>
        <time>2015-11-27T13:30:21Z</time>
      </trkpt>
      <trkpt lat="45.89034" lon="6.46525">
        <ele>2078.6</ele>
        <time>2015-11-27T13:30:31Z</time>
      </trkpt>
      <trkpt lat="45.89029" lon="6.46528">
        <ele>2083.6</ele>
        <time>2015-11-27T13:30:41Z</time>
      </trkpt>
      <trkpt lat="45.89024" lon="6.46531">
        <ele>2082.6</ele>
        <time>2015-11-27T13:30:51Z</time>
      </trkpt>
      <trkpt lat="45.89019" lon="6.46536">
        <ele>2081.6</ele>
        <time>2015-11-27T13:31:01Z</time>
      </trkpt>
      <trkpt lat="45.89014" lon="6.4654">
        <ele>2082.6</ele>
        <time>2015-11-27T13:31:11Z</time>
      </trkpt>
      <trkpt lat="45.8901" lon="6.46543">
        <ele>2083.6</ele>
        <time>2015-11-27T13:31:21Z</time>
      </trkpt>
      <trkpt lat="45.89006" lon="6.46546">
        <ele>2084.6</ele>
        <time>2015-11-27T13:31:31Z</time>
      </trkpt>
      <trkpt lat="45.89" lon="6.46548">
        <ele>2087.6</ele>
        <time>2015-11-27T13:31:41Z</time>
      </trkpt>
      <trkpt lat="45.88994" lon="6.46552">
        <ele>2088.6</ele>
        <time>2015-11-27T13:31:51Z</time>
      </trkpt>
      <trkpt lat="45.88989" lon="6.46553">
        <ele>2089.6</ele>
        <time>2015-11-27T13:32:01Z</time>
      </trkpt>
      <trkpt lat="45.88984" lon="6.46555">
        <ele>2095.6</ele>
        <time>2015-11-27T13:32:11Z</time>
      </trkpt>
      <trkpt lat="45.88979" lon="6.46555">
        <ele>2094.6</ele>
        <time>2015-11-27T13:32:21Z</time>
      </trkpt>
      <trkpt lat="45.88973" lon="6.46555">
        <ele>2097.6</ele>
        <time>2015-11-27T13:32:31Z</time>
      </trkpt>
      <trkpt lat="45.88968" lon="6.46555">
        <ele>2099.6</ele>
        <time>2015-11-27T13:32:41Z</time>
      </trkpt>
      <trkpt lat="45.88966" lon="6.46558">
        <ele>2102.6</ele>
        <time>2015-11-27T13:32:51Z</time>
      </trkpt>
      <trkpt lat="45.88968" lon="6.46563">
        <ele>2108.6</ele>
        <time>2015-11-27T13:33:01Z</time>
      </trkpt>
      <trkpt lat="45.8897" lon="6.46569">
        <ele>2111.6</ele>
        <time>2015-11-27T13:33:11Z</time>
      </trkpt>
      <trkpt lat="45.88973" lon="6.46575">
        <ele>2113.6</ele>
        <time>2015-11-27T13:33:21Z</time>
      </trkpt>
      <trkpt lat="45.88976" lon="6.46582">
        <ele>2115.6</ele>
        <time>2015-11-27T13:33:31Z</time>
      </trkpt>
      <trkpt lat="45.88979" lon="6.46588">
        <ele>2117.6</ele>
        <time>2015-11-27T13:33:41Z</time>
      </trkpt>
      <trkpt lat="45.88981" lon="6.46595">
        <ele>2119.6</ele>
        <time>2015-11-27T13:33:51Z</time>
      </trkpt>
      <trkpt lat="45.88986" lon="6.466">
        <ele>2120.6</ele>
        <time>2015-11-27T13:34:01Z</time>
      </trkpt>
      <trkpt lat="45.88991" lon="6.46607">
        <ele>2121.6</ele>
        <time>2015-11-27T13:34:11Z</time>
      </trkpt>
      <trkpt lat="45.88993" lon="6.46612">
        <ele>2121.6</ele>
        <time>2015-11-27T13:34:21Z</time>
      </trkpt>
      <trkpt lat="45.88998" lon="6.46618">
        <ele>2123.6</ele>
        <time>2015-11-27T13:34:31Z</time>
      </trkpt>
      <trkpt lat="45.89002" lon="6.46624">
        <ele>2122.6</ele>
        <time>2015-11-27T13:34:41Z</time>
      </trkpt>
      <trkpt lat="45.89006" lon="6.46631">
        <ele>2125.6</ele>
        <time>2015-11-27T13:34:51Z</time>
      </trkpt>
      <trkpt lat="45.89008" lon="6.46637">
        <ele>2125.6</ele>
        <time>2015-11-27T13:35:01Z</time>
      </trkpt>
      <trkpt lat="45.89011" lon="6.46643">
        <ele>2128.6</ele>
        <time>2015-11-27T13:35:11Z</time>
      </trkpt>
      <trkpt lat="45.89013" lon="6.46649">
        <ele>2130.6</ele>
        <time>2015-11-27T13:35:21Z</time>
      </trkpt>
      <trkpt lat="45.89015" lon="6.46655">
        <ele>2132.6</ele>
        <time>2015-11-27T13:35:31Z</time>
      </trkpt>
      <trkpt lat="45.89018" lon="6.46661">
        <ele>2135.6</ele>
        <time>2015-11-27T13:35:41Z</time>
      </trkpt>
      <trkpt lat="45.89021" lon="6.46668">
        <ele>2136.6</ele>
        <time>2015-11-27T13:35:51Z</time>
      </trkpt>
      <trkpt lat="45.89024" lon="6.46674">
        <ele>2138.6</ele>
        <time>2015-11-27T13:36:01Z</time>
      </trkpt>
      <trkpt lat="45.89028" lon="6.46681">
        <ele>2139.6</ele>
        <time>2015-11-27T13:36:11Z</time>
      </trkpt>
      <trkpt lat="45.89031" lon="6.46686">
        <ele>2142.6</ele>
        <time>2015-11-27T13:36:21Z</time>
      </trkpt>
      <trkpt lat="45.89033" lon="6.46693">
        <ele>2144.6</ele>
        <time>2015-11-27T13:36:31Z</time>
      </trkpt>
      <trkpt lat="45.89037" lon="6.46699">
        <ele>2145.6</ele>
        <time>2015-11-27T13:36:41Z</time>
      </trkpt>
      <trkpt lat="45.89039" lon="6.46705">
        <ele>2147.6</ele>
        <time>2015-11-27T13:36:51Z</time>
      </trkpt>
      <trkpt lat="45.89039" lon="6.46708">
        <ele>2148.6</ele>
        <time>2015-11-27T13:37:01Z</time>
      </trkpt>
      <trkpt lat="45.89034" lon="6.46708">
        <ele>2148.6</ele>
        <time>2015-11-27T13:37:11Z</time>
      </trkpt>
      <trkpt lat="45.8903" lon="6.4671">
        <ele>2150.6</ele>
        <time>2015-11-27T13:37:21Z</time>
      </trkpt>
      <trkpt lat="45.89025" lon="6.46714">
        <ele>2152.6</ele>
        <time>2015-11-27T13:37:31Z</time>
      </trkpt>
      <trkpt lat="45.89019" lon="6.46715">
        <ele>2152.6</ele>
        <time>2015-11-27T13:37:41Z</time>
      </trkpt>
      <trkpt lat="45.89014" lon="6.46716">
        <ele>2151.6</ele>
        <time>2015-11-27T13:37:51Z</time>
      </trkpt>
      <trkpt lat="45.89009" lon="6.46718">
        <ele>2152.6</ele>
        <time>2015-11-27T13:38:01Z</time>
      </trkpt>
      <trkpt lat="45.89004" lon="6.4672">
        <ele>2154.6</ele>
        <time>2015-11-27T13:38:11Z</time>
      </trkpt>
      <trkpt lat="45.88999" lon="6.46721">
        <ele>2156.6</ele>
        <time>2015-11-27T13:38:21Z</time>
      </trkpt>
      <trkpt lat="45.88993" lon="6.46723">
        <ele>2157.6</ele>
        <time>2015-11-27T13:38:31Z</time>
      </trkpt>
      <trkpt lat="45.88987" lon="6.46723">
        <ele>2159.6</ele>
        <time>2015-11-27T13:38:41Z</time>
      </trkpt>
      <trkpt lat="45.88983" lon="6.46725">
        <ele>2159.6</ele>
        <time>2015-11-27T13:38:51Z</time>
      </trkpt>
      <trkpt lat="45.88985" lon="6.4673">
        <ele>2161.6</ele>
        <time>2015-11-27T13:39:01Z</time>
      </trkpt>
      <trkpt lat="45.88987" lon="6.46735">
        <ele>2165.6</ele>
        <time>2015-11-27T13:39:11Z</time>
      </trkpt>
      <trkpt lat="45.88988" lon="6.46742">
        <ele>2168.6</ele>
        <time>2015-11-27T13:39:21Z</time>
      </trkpt>
      <trkpt lat="45.8899" lon="6.46748">
        <ele>2170.6</ele>
        <time>2015-11-27T13:39:31Z</time>
      </trkpt>
      <trkpt lat="45.88992" lon="6.46754">
        <ele>2172.6</ele>
        <time>2015-11-27T13:39:41Z</time>
      </trkpt>
      <trkpt lat="45.88994" lon="6.4676">
        <ele>2174.6</ele>
        <time>2015-11-27T13:39:51Z</time>
      </trkpt>
      <trkpt lat="45.88997" lon="6.46766">
        <ele>2175.6</ele>
        <time>2015-11-27T13:40:01Z</time>
      </trkpt>
      <trkpt lat="45.88999" lon="6.46773">
        <ele>2177.6</ele>
        <time>2015-11-27T13:40:11Z</time>
      </trkpt>
      <trkpt lat="45.89002" lon="6.46779">
        <ele>2178.6</ele>
        <time>2015-11-27T13:40:21Z</time>
      </trkpt>
      <trkpt lat="45.89005" lon="6.46786">
        <ele>2179.6</ele>
        <time>2015-11-27T13:40:31Z</time>
      </trkpt>
      <trkpt lat="45.89009" lon="6.46792">
        <ele>2180.6</ele>
        <time>2015-11-27T13:40:41Z</time>
      </trkpt>
      <trkpt lat="45.89013" lon="6.46798">
        <ele>2181.6</ele>
        <time>2015-11-27T13:40:51Z</time>
      </trkpt>
      <trkpt lat="45.89016" lon="6.46804">
        <ele>2183.6</ele>
        <time>2015-11-27T13:41:01Z</time>
      </trkpt>
      <trkpt lat="45.89019" lon="6.4681">
        <ele>2184.6</ele>
        <time>2015-11-27T13:41:11Z</time>
      </trkpt>
      <trkpt lat="45.89021" lon="6.46816">
        <ele>2185.6</ele>
        <time>2015-11-27T13:41:21Z</time>
      </trkpt>
      <trkpt lat="45.89018" lon="6.46816">
        <ele>2186.6</ele>
        <time>2015-11-27T13:41:31Z</time>
      </trkpt>
      <trkpt lat="45.89013" lon="6.46817">
        <ele>2187.6</ele>
        <time>2015-11-27T13:41:41Z</time>
      </trkpt>
      <trkpt lat="45.89008" lon="6.46818">
        <ele>2189.6</ele>
        <time>2015-11-27T13:41:51Z</time>
      </trkpt>
      <trkpt lat="45.89003" lon="6.4682">
        <ele>2191.6</ele>
        <time>2015-11-27T13:42:01Z</time>
      </trkpt>
      <trkpt lat="45.88998" lon="6.46822">
        <ele>2192.6</ele>
        <time>2015-11-27T13:42:11Z</time>
      </trkpt>
      <trkpt lat="45.88994" lon="6.46824">
        <ele>2194.6</ele>
        <time>2015-11-27T13:42:21Z</time>
      </trkpt>
      <trkpt lat="45.88989" lon="6.46826">
        <ele>2197.6</ele>
        <time>2015-11-27T13:42:31Z</time>
      </trkpt>
      <trkpt lat="45.88984" lon="6.46827">
        <ele>2198.6</ele>
        <time>2015-11-27T13:42:41Z</time>
      </trkpt>
      <trkpt lat="45.8898" lon="6.46829">
        <ele>2197.6</ele>
        <time>2015-11-27T13:42:51Z</time>
      </trkpt>
      <trkpt lat="45.88975" lon="6.46833">
        <ele>2198.6</ele>
        <time>2015-11-27T13:43:01Z</time>
      </trkpt>
      <trkpt lat="45.8897" lon="6.46837">
        <ele>2199.6</ele>
        <time>2015-11-27T13:43:11Z</time>
      </trkpt>
      <trkpt lat="45.88966" lon="6.46841">
        <ele>2200.6</ele>
        <time>2015-11-27T13:43:21Z</time>
      </trkpt>
      <trkpt lat="45.88963" lon="6.46846">
        <ele>2201.6</ele>
        <time>2015-11-27T13:43:31Z</time>
      </trkpt>
      <trkpt lat="45.88958" lon="6.46851">
        <ele>2201.6</ele>
        <time>2015-11-27T13:43:41Z</time>
      </trkpt>
      <trkpt lat="45.88957" lon="6.46857">
        <ele>2204.6</ele>
        <time>2015-11-27T13:43:51Z</time>
      </trkpt>
      <trkpt lat="45.88959" lon="6.46862">
        <ele>2208.6</ele>
        <time>2015-11-27T13:44:01Z</time>
      </trkpt>
      <trkpt lat="45.88963" lon="6.46868">
        <ele>2211.6</ele>
        <time>2015-11-27T13:44:11Z</time>
      </trkpt>
      <trkpt lat="45.88967" lon="6.46872">
        <ele>2212.6</ele>
        <time>2015-11-27T13:44:21Z</time>
      </trkpt>
      <trkpt lat="45.88971" lon="6.46876">
        <ele>2214.6</ele>
        <time>2015-11-27T13:44:31Z</time>
      </trkpt>
      <trkpt lat="45.88975" lon="6.4688">
        <ele>2217.6</ele>
        <time>2015-11-27T13:44:41Z</time>
      </trkpt>
      <trkpt lat="45.88978" lon="6.46884">
        <ele>2217.6</ele>
        <time>2015-11-27T13:44:51Z</time>
      </trkpt>
      <trkpt lat="45.88982" lon="6.46888">
        <ele>2219.6</ele>
        <time>2015-11-27T13:45:01Z</time>
      </trkpt>
      <trkpt lat="45.88986" lon="6.46893">
        <ele>2220.6</ele>
        <time>2015-11-27T13:45:11Z</time>
      </trkpt>
      <trkpt lat="45.88985" lon="6.46894">
        <ele>2221.6</ele>
        <time>2015-11-27T13:45:21Z</time>
      </trkpt>
      <trkpt lat="45.8898" lon="6.46896">
        <ele>2223.6</ele>
        <time>2015-11-27T13:45:31Z</time>
      </trkpt>
      <trkpt lat="45.88976" lon="6.46899">
        <ele>2225.6</ele>
        <time>2015-11-27T13:45:41Z</time>
      </trkpt>
      <trkpt lat="45.88971" lon="6.46903">
        <ele>2226.6</ele>
        <time>2015-11-27T13:45:51Z</time>
      </trkpt>
      <trkpt lat="45.88966" lon="6.46907">
        <ele>2227.6</ele>
        <time>2015-11-27T13:46:01Z</time>
      </trkpt>
      <trkpt lat="45.88962" lon="6.4691">
        <ele>2229.6</ele>
        <time>2015-11-27T13:46:11Z</time>
      </trkpt>
      <trkpt lat="45.88958" lon="6.46915">
        <ele>2231.6</ele>
        <time>2015-11-27T13:46:21Z</time>
      </trkpt>
      <trkpt lat="45.88954" lon="6.4692">
        <ele>2232.6</ele>
        <time>2015-11-27T13:46:31Z</time>
      </trkpt>
      <trkpt lat="45.8895" lon="6.46925">
        <ele>2234.6</ele>
        <time>2015-11-27T13:46:41Z</time>
      </trkpt>
      <trkpt lat="45.88946" lon="6.46931">
        <ele>2236.6</ele>
        <time>2015-11-27T13:46:51Z</time>
      </trkpt>
      <trkpt lat="45.88942" lon="6.46933">
        <ele>2237.6</ele>
        <time>2015-11-27T13:47:01Z</time>
      </trkpt>
      <trkpt lat="45.88937" lon="6.46938">
        <ele>2236.6</ele>
        <time>2015-11-27T13:47:11Z</time>
      </trkpt>
      <trkpt lat="45.88933" lon="6.46941">
        <ele>2237.6</ele>
        <time>2015-11-27T13:47:21Z</time>
      </trkpt>
      <trkpt lat="45.88928" lon="6.46946">
        <ele>2239.6</ele>
        <time>2015-11-27T13:47:31Z</time>
      </trkpt>
      <trkpt lat="45.88922" lon="6.4695">
        <ele>2240.6</ele>
        <time>2015-11-27T13:47:41Z</time>
      </trkpt>
      <trkpt lat="45.88915" lon="6.46953">
        <ele>2241.6</ele>
        <time>2015-11-27T13:47:51Z</time>
      </trkpt>
      <trkpt lat="45.88908" lon="6.46956">
        <ele>2242.6</ele>
        <time>2015-11-27T13:48:01Z</time>
      </trkpt>
      <trkpt lat="45.88901" lon="6.46958">
        <ele>2241.6</ele>
        <time>2015-11-27T13:48:11Z</time>
      </trkpt>
      <trkpt lat="45.88896" lon="6.4696">
        <ele>2242.6</ele>
        <time>2015-11-27T13:48:21Z</time>
      </trkpt>
      <trkpt lat="45.88891" lon="6.46961">
        <ele>2243.6</ele>
        <time>2015-11-27T13:48:31Z</time>
      </trkpt>
      <trkpt lat="45.88885" lon="6.46965">
        <ele>2246.6</ele>
        <time>2015-11-27T13:48:41Z</time>
      </trkpt>
      <trkpt lat="45.88883" lon="6.46972">
        <ele>2247.6</ele>
        <time>2015-11-27T13:48:51Z</time>
      </trkpt>
      <trkpt lat="45.8888" lon="6.46974">
        <ele>2249.6</ele>
        <time>2015-11-27T13:49:01Z</time>
      </trkpt>
      <trkpt lat="45.88878" lon="6.46974">
        <ele>2250.6</ele>
        <time>2015-11-27T13:49:11Z</time>
      </trkpt>
      <trkpt lat="45.88878" lon="6.46974">
        <ele>2249.6</ele>
        <time>2015-11-27T13:49:21Z</time>
      </trkpt>
      <trkpt lat="45.88878" lon="6.46974">
        <ele>2249.6</ele>
        <time>2015-11-27T13:49:31Z</time>
      </trkpt>
      <trkpt lat="45.88878" lon="6.46973">
        <ele>2249.6</ele>
        <time>2015-11-27T13:49:41Z</time>
      </trkpt>
      <trkpt lat="45.88878" lon="6.46972">
        <ele>2249.6</ele>
        <time>2015-11-27T13:49:51Z</time>
      </trkpt>
      <trkpt lat="45.88878" lon="6.46973">
        <ele>2252.6</ele>
        <time>2015-11-27T13:50:01Z</time>
      </trkpt>
      <trkpt lat="45.88876" lon="6.46973">
        <ele>2253.6</ele>
        <time>2015-11-27T13:50:11Z</time>
      </trkpt>
      <trkpt lat="45.88876" lon="6.46974">
        <ele>2253.6</ele>
        <time>2015-11-27T13:50:21Z</time>
      </trkpt>
      <trkpt lat="45.88876" lon="6.46974">
        <ele>2253.6</ele>
        <time>2015-11-27T13:50:31Z</time>
      </trkpt>
      <trkpt lat="45.88876" lon="6.46975">
        <ele>2255.6</ele>
        <time>2015-11-27T13:50:41Z</time>
      </trkpt>
      <trkpt lat="45.88876" lon="6.46975">
        <ele>2257.6</ele>
        <time>2015-11-27T13:50:51Z</time>
      </trkpt>
      <trkpt lat="45.88876" lon="6.46975">
        <ele>2257.6</ele>
        <time>2015-11-27T13:51:01Z</time>
      </trkpt>
      <trkpt lat="45.88876" lon="6.46975">
        <ele>2257.6</ele>
        <time>2015-11-27T13:51:11Z</time>
      </trkpt>
      <trkpt lat="45.88876" lon="6.46975">
        <ele>2257.6</ele>
        <time>2015-11-27T13:51:21Z</time>
      </trkpt>
      <trkpt lat="45.88876" lon="6.46975">
        <ele>2257.6</ele>
        <time>2015-11-27T13:51:31Z</time>
      </trkpt>
      <trkpt lat="45.88876" lon="6.46975">
        <ele>2257.6</ele>
        <time>2015-11-27T13:51:41Z</time>
      </trkpt>
      <trkpt lat="45.88876" lon="6.46975">
        <ele>2257.6</ele>
        <time>2015-11-27T13:51:51Z</time>
      </trkpt>
      <trkpt lat="45.88876" lon="6.46976">
        <ele>2257.6</ele>
        <time>2015-11-27T13:52:01Z</time>
      </trkpt>
      <trkpt lat="45.88876" lon="6.46975">
        <ele>2256.6</ele>
        <time>2015-11-27T13:52:11Z</time>
      </trkpt>
      <trkpt lat="45.88876" lon="6.46975">
        <ele>2256.6</ele>
        <time>2015-11-27T13:52:21Z</time>
      </trkpt>
      <trkpt lat="45.88876" lon="6.46975">
        <ele>2256.6</ele>
        <time>2015-11-27T13:52:31Z</time>
      </trkpt>
      <trkpt lat="45.88876" lon="6.46975">
        <ele>2256.6</ele>
        <time>2015-11-27T13:52:41Z</time>
      </trkpt>
      <trkpt lat="45.88876" lon="6.46975">
        <ele>2256.6</ele>
        <time>2015-11-27T13:52:51Z</time>
      </trkpt>
      <trkpt lat="45.88876" lon="6.46975">
        <ele>2256.6</ele>
        <time>2015-11-27T13:53:01Z</time>
      </trkpt>
      <trkpt lat="45.88876" lon="6.46975">
        <ele>2255.6</ele>
        <time>2015-11-27T13:53:11Z</time>
      </trkpt>
      <trkpt lat="45.88876" lon="6.46975">
        <ele>2256.6</ele>
        <time>2015-11-27T13:53:21Z</time>
      </trkpt>
      <trkpt lat="45.88877" lon="6.46975">
        <ele>2256.6</ele>
        <time>2015-11-27T13:53:31Z</time>
      </trkpt>
      <trkpt lat="45.88877" lon="6.46975">
        <ele>2255.6</ele>
        <time>2015-11-27T13:53:41Z</time>
      </trkpt>
      <trkpt lat="45.88876" lon="6.46975">
        <ele>2255.6</ele>
        <time>2015-11-27T13:53:51Z</time>
      </trkpt>
      <trkpt lat="45.88875" lon="6.46974">
        <ele>2255.6</ele>
        <time>2015-11-27T13:54:01Z</time>
      </trkpt>
      <trkpt lat="45.88875" lon="6.46976">
        <ele>2256.6</ele>
        <time>2015-11-27T13:54:11Z</time>
      </trkpt>
      <trkpt lat="45.88876" lon="6.46977">
        <ele>2256.6</ele>
        <time>2015-11-27T13:54:21Z</time>
      </trkpt>
      <trkpt lat="45.88876" lon="6.46976">
        <ele>2255.6</ele>
        <time>2015-11-27T13:54:31Z</time>
      </trkpt>
      <trkpt lat="45.88876" lon="6.46976">
        <ele>2253.6</ele>
        <time>2015-11-27T13:54:41Z</time>
      </trkpt>
      <trkpt lat="45.88877" lon="6.46975">
        <ele>2253.6</ele>
        <time>2015-11-27T13:54:51Z</time>
      </trkpt>
      <trkpt lat="45.88878" lon="6.46974">
        <ele>2252.6</ele>
        <time>2015-11-27T13:55:01Z</time>
      </trkpt>
      <trkpt lat="45.88878" lon="6.46974">
        <ele>2252.6</ele>
        <time>2015-11-27T13:55:11Z</time>
      </trkpt>
      <trkpt lat="45.88878" lon="6.46974">
        <ele>2252.6</ele>
        <time>2015-11-27T13:55:21Z</time>
      </trkpt>
      <trkpt lat="45.88878" lon="6.46974">
        <ele>2252.6</ele>
        <time>2015-11-27T13:55:31Z</time>
      </trkpt>
      <trkpt lat="45.88878" lon="6.46974">
        <ele>2252.6</ele>
        <time>2015-11-27T13:55:41Z</time>
      </trkpt>
      <trkpt lat="45.88878" lon="6.46974">
        <ele>2252.6</ele>
        <time>2015-11-27T13:55:51Z</time>
      </trkpt>
      <trkpt lat="45.88878" lon="6.46974">
        <ele>2252.6</ele>
        <time>2015-11-27T13:56:01Z</time>
      </trkpt>
      <trkpt lat="45.88878" lon="6.46974">
        <ele>2252.6</ele>
        <time>2015-11-27T13:56:11Z</time>
      </trkpt>
      <trkpt lat="45.88878" lon="6.46974">
        <ele>2252.6</ele>
        <time>2015-11-27T13:56:21Z</time>
      </trkpt>
      <trkpt lat="45.88878" lon="6.46974">
        <ele>2252.6</ele>
        <time>2015-11-27T13:56:31Z</time>
      </trkpt>
      <trkpt lat="45.88878" lon="6.46974">
        <ele>2252.6</ele>
        <time>2015-11-27T13:56:41Z</time>
      </trkpt>
      <trkpt lat="45.88878" lon="6.46974">
        <ele>2252.6</ele>
        <time>2015-11-27T13:56:51Z</time>
      </trkpt>
      <trkpt lat="45.88878" lon="6.46974">
        <ele>2252.6</ele>
        <time>2015-11-27T13:57:01Z</time>
      </trkpt>
      <trkpt lat="45.88878" lon="6.46974">
        <ele>2252.6</ele>
        <time>2015-11-27T13:57:11Z</time>
      </trkpt>
      <trkpt lat="45.88878" lon="6.46974">
        <ele>2252.6</ele>
        <time>2015-11-27T13:57:21Z</time>
      </trkpt>
      <trkpt lat="45.88877" lon="6.46975">
        <ele>2252.6</ele>
        <time>2015-11-27T13:57:31Z</time>
      </trkpt>
      <trkpt lat="45.88878" lon="6.46975">
        <ele>2252.6</ele>
        <time>2015-11-27T13:57:41Z</time>
      </trkpt>
      <trkpt lat="45.88878" lon="6.46974">
        <ele>2252.6</ele>
        <time>2015-11-27T13:57:51Z</time>
      </trkpt>
      <trkpt lat="45.88877" lon="6.46973">
        <ele>2251.6</ele>
        <time>2015-11-27T13:58:01Z</time>
      </trkpt>
      <trkpt lat="45.88877" lon="6.46973">
        <ele>2251.6</ele>
        <time>2015-11-27T13:58:11Z</time>
      </trkpt>
      <trkpt lat="45.88877" lon="6.46973">
        <ele>2251.6</ele>
        <time>2015-11-27T13:58:21Z</time>
      </trkpt>
      <trkpt lat="45.88877" lon="6.46973">
        <ele>2251.6</ele>
        <time>2015-11-27T13:58:31Z</time>
      </trkpt>
      <trkpt lat="45.88877" lon="6.46973">
        <ele>2252.6</ele>
        <time>2015-11-27T13:58:41Z</time>
      </trkpt>
      <trkpt lat="45.88877" lon="6.46974">
        <ele>2252.6</ele>
        <time>2015-11-27T13:58:51Z</time>
      </trkpt>
      <trkpt lat="45.88877" lon="6.46974">
        <ele>2252.6</ele>
        <time>2015-11-27T13:59:01Z</time>
      </trkpt>
      <trkpt lat="45.88877" lon="6.46974">
        <ele>2252.6</ele>
        <time>2015-11-27T13:59:11Z</time>
      </trkpt>
      <trkpt lat="45.88877" lon="6.46974">
        <ele>2252.6</ele>
        <time>2015-11-27T13:59:21Z</time>
      </trkpt>
      <trkpt lat="45.88877" lon="6.46974">
        <ele>2252.6</ele>
        <time>2015-11-27T13:59:31Z</time>
      </trkpt>
      <trkpt lat="45.88877" lon="6.46974">
        <ele>2252.6</ele>
        <time>2015-11-27T13:59:41Z</time>
      </trkpt>
      <trkpt lat="45.88877" lon="6.46974">
        <ele>2252.6</ele>
        <time>2015-11-27T13:59:51Z</time>
      </trkpt>
      <trkpt lat="45.88877" lon="6.46974">
        <ele>2252.6</ele>
        <time>2015-11-27T14:00:01Z</time>
      </trkpt>
      <trkpt lat="45.88877" lon="6.46974">
        <ele>2252.6</ele>
        <time>2015-11-27T14:00:11Z</time>
      </trkpt>
      <trkpt lat="45.88877" lon="6.46974">
        <ele>2252.6</ele>
        <time>2015-11-27T14:00:21Z</time>
      </trkpt>
      <trkpt lat="45.88877" lon="6.46974">
        <ele>2252.6</ele>
        <time>2015-11-27T14:00:31Z</time>
      </trkpt>
      <trkpt lat="45.88877" lon="6.46974">
        <ele>2252.6</ele>
        <time>2015-11-27T14:00:41Z</time>
      </trkpt>
      <trkpt lat="45.88877" lon="6.46974">
        <ele>2252.6</ele>
        <time>2015-11-27T14:00:51Z</time>
      </trkpt>
      <trkpt lat="45.88877" lon="6.46975">
        <ele>2253.6</ele>
        <time>2015-11-27T14:01:01Z</time>
      </trkpt>
      <trkpt lat="45.88876" lon="6.46975">
        <ele>2253.6</ele>
        <time>2015-11-27T14:01:11Z</time>
      </trkpt>
      <trkpt lat="45.88877" lon="6.46975">
        <ele>2254.6</ele>
        <time>2015-11-27T14:01:21Z</time>
      </trkpt>
      <trkpt lat="45.88877" lon="6.46975">
        <ele>2256.6</ele>
        <time>2015-11-27T14:01:31Z</time>
      </trkpt>
      <trkpt lat="45.88877" lon="6.46975">
        <ele>2256.6</ele>
        <time>2015-11-27T14:01:41Z</time>
      </trkpt>
      <trkpt lat="45.88878" lon="6.46975">
        <ele>2256.6</ele>
        <time>2015-11-27T14:01:51Z</time>
      </trkpt>
      <trkpt lat="45.88878" lon="6.46974">
        <ele>2256.6</ele>
        <time>2015-11-27T14:02:01Z</time>
      </trkpt>
      <trkpt lat="45.88877" lon="6.46974">
        <ele>2256.6</ele>
        <time>2015-11-27T14:02:11Z</time>
      </trkpt>
      <trkpt lat="45.88875" lon="6.46974">
        <ele>2255.6</ele>
        <time>2015-11-27T14:02:21Z</time>
      </trkpt>
      <trkpt lat="45.88876" lon="6.46975">
        <ele>2256.6</ele>
        <time>2015-11-27T14:02:31Z</time>
      </trkpt>
      <trkpt lat="45.88876" lon="6.46974">
        <ele>2255.6</ele>
        <time>2015-11-27T14:02:41Z</time>
      </trkpt>
      <trkpt lat="45.88876" lon="6.46975">
        <ele>2255.6</ele>
        <time>2015-11-27T14:02:51Z</time>
      </trkpt>
      <trkpt lat="45.88876" lon="6.46975">
        <ele>2255.6</ele>
        <time>2015-11-27T14:03:01Z</time>
      </trkpt>
      <trkpt lat="45.88875" lon="6.46975">
        <ele>2255.6</ele>
        <time>2015-11-27T14:03:11Z</time>
      </trkpt>
      <trkpt lat="45.88876" lon="6.46976">
        <ele>2255.6</ele>
        <time>2015-11-27T14:03:21Z</time>
      </trkpt>
      <trkpt lat="45.88876" lon="6.46975">
        <ele>2255.6</ele>
        <time>2015-11-27T14:03:31Z</time>
      </trkpt>
      <trkpt lat="45.88877" lon="6.46975">
        <ele>2255.6</ele>
        <time>2015-11-27T14:03:41Z</time>
      </trkpt>
      <trkpt lat="45.88879" lon="6.46966">
        <ele>2253.6</ele>
        <time>2015-11-27T14:03:51Z</time>
      </trkpt>
      <trkpt lat="45.88895" lon="6.46933">
        <ele>2242.6</ele>
        <time>2015-11-27T14:04:01Z</time>
      </trkpt>
      <trkpt lat="45.88898" lon="6.46901">
        <ele>2232.6</ele>
        <time>2015-11-27T14:04:11Z</time>
      </trkpt>
      <trkpt lat="45.88903" lon="6.46898">
        <ele>2230.6</ele>
        <time>2015-11-27T14:04:21Z</time>
      </trkpt>
      <trkpt lat="45.88916" lon="6.4689">
        <ele>2223.6</ele>
        <time>2015-11-27T14:04:31Z</time>
      </trkpt>
      <trkpt lat="45.88924" lon="6.46844">
        <ele>2208.6</ele>
        <time>2015-11-27T14:04:41Z</time>
      </trkpt>
      <trkpt lat="45.88925" lon="6.46833">
        <ele>2204.6</ele>
        <time>2015-11-27T14:04:51Z</time>
      </trkpt>
      <trkpt lat="45.88925" lon="6.46833">
        <ele>2204.6</ele>
        <time>2015-11-27T14:05:01Z</time>
      </trkpt>
      <trkpt lat="45.8892" lon="6.46803">
        <ele>2196.6</ele>
        <time>2015-11-27T14:05:11Z</time>
      </trkpt>
      <trkpt lat="45.88926" lon="6.46754">
        <ele>2183.6</ele>
        <time>2015-11-27T14:05:21Z</time>
      </trkpt>
      <trkpt lat="45.88931" lon="6.46747">
        <ele>2180.6</ele>
        <time>2015-11-27T14:05:31Z</time>
      </trkpt>
      <trkpt lat="45.88937" lon="6.46705">
        <ele>2169.6</ele>
        <time>2015-11-27T14:05:41Z</time>
      </trkpt>
      <trkpt lat="45.88941" lon="6.46704">
        <ele>2168.6</ele>
        <time>2015-11-27T14:05:51Z</time>
      </trkpt>
      <trkpt lat="45.88946" lon="6.46702">
        <ele>2166.6</ele>
        <time>2015-11-27T14:06:01Z</time>
      </trkpt>
      <trkpt lat="45.88961" lon="6.46698">
        <ele>2162.6</ele>
        <time>2015-11-27T14:06:11Z</time>
      </trkpt>
      <trkpt lat="45.8897" lon="6.46691">
        <ele>2157.6</ele>
        <time>2015-11-27T14:06:21Z</time>
      </trkpt>
      <trkpt lat="45.8898" lon="6.46672">
        <ele>2149.6</ele>
        <time>2015-11-27T14:06:31Z</time>
      </trkpt>
      <trkpt lat="45.8899" lon="6.4665">
        <ele>2139.6</ele>
        <time>2015-11-27T14:06:41Z</time>
      </trkpt>
      <trkpt lat="45.88994" lon="6.46625">
        <ele>2131.6</ele>
        <time>2015-11-27T14:06:51Z</time>
      </trkpt>
      <trkpt lat="45.88988" lon="6.46604">
        <ele>2123.6</ele>
        <time>2015-11-27T14:07:01Z</time>
      </trkpt>
      <trkpt lat="45.88988" lon="6.46585">
        <ele>2118.6</ele>
        <time>2015-11-27T14:07:11Z</time>
      </trkpt>
      <trkpt lat="45.88987" lon="6.46586">
        <ele>2118.6</ele>
        <time>2015-11-27T14:07:21Z</time>
      </trkpt>
      <trkpt lat="45.88996" lon="6.46564">
        <ele>2109.6</ele>
        <time>2015-11-27T14:07:31Z</time>
      </trkpt>
      <trkpt lat="45.89006" lon="6.46551">
        <ele>2103.6</ele>
        <time>2015-11-27T14:07:41Z</time>
      </trkpt>
      <trkpt lat="45.89006" lon="6.46528">
        <ele>2094.6</ele>
        <time>2015-11-27T14:07:51Z</time>
      </trkpt>
      <trkpt lat="45.89003" lon="6.46527">
        <ele>2093.6</ele>
        <time>2015-11-27T14:08:01Z</time>
      </trkpt>
      <trkpt lat="45.88998" lon="6.46524">
        <ele>2091.6</ele>
        <time>2015-11-27T14:08:11Z</time>
      </trkpt>
      <trkpt lat="45.88998" lon="6.46523">
        <ele>2090.6</ele>
        <time>2015-11-27T14:08:21Z</time>
      </trkpt>
      <trkpt lat="45.88996" lon="6.46522">
        <ele>2090.6</ele>
        <time>2015-11-27T14:08:31Z</time>
      </trkpt>
      <trkpt lat="45.88989" lon="6.46493">
        <ele>2082.6</ele>
        <time>2015-11-27T14:08:41Z</time>
      </trkpt>
      <trkpt lat="45.88988" lon="6.46459">
        <ele>2069.6</ele>
        <time>2015-11-27T14:08:51Z</time>
      </trkpt>
      <trkpt lat="45.88995" lon="6.46434">
        <ele>2061.6</ele>
        <time>2015-11-27T14:09:01Z</time>
      </trkpt>
      <trkpt lat="45.88984" lon="6.46412">
        <ele>2055.6</ele>
        <time>2015-11-27T14:09:11Z</time>
      </trkpt>
      <trkpt lat="45.88986" lon="6.46379">
        <ele>2047.6</ele>
        <time>2015-11-27T14:09:21Z</time>
      </trkpt>
      <trkpt lat="45.88986" lon="6.46382">
        <ele>2046.6</ele>
        <time>2015-11-27T14:09:31Z</time>
      </trkpt>
      <trkpt lat="45.88986" lon="6.46382">
        <ele>2046.6</ele>
        <time>2015-11-27T14:09:41Z</time>
      </trkpt>
      <trkpt lat="45.88994" lon="6.46369">
        <ele>2041.6</ele>
        <time>2015-11-27T14:09:51Z</time>
      </trkpt>
      <trkpt lat="45.88992" lon="6.46322">
        <ele>2028.6</ele>
        <time>2015-11-27T14:10:01Z</time>
      </trkpt>
      <trkpt lat="45.8899" lon="6.46289">
        <ele>2020.6</ele>
        <time>2015-11-27T14:10:11Z</time>
      </trkpt>
      <trkpt lat="45.88992" lon="6.46244">
        <ele>2007.6</ele>
        <time>2015-11-27T14:10:21Z</time>
      </trkpt>
      <trkpt lat="45.88994" lon="6.46235">
        <ele>2003.6</ele>
        <time>2015-11-27T14:10:31Z</time>
      </trkpt>
      <trkpt lat="45.88993" lon="6.46237">
        <ele>2002.6</ele>
        <time>2015-11-27T14:10:41Z</time>
      </trkpt>
      <trkpt lat="45.88993" lon="6.46237">
        <ele>2002.6</ele>
        <time>2015-11-27T14:10:51Z</time>
      </trkpt>
      <trkpt lat="45.88993" lon="6.46236">
        <ele>2002.6</ele>
        <time>2015-11-27T14:11:01Z</time>
      </trkpt>
      <trkpt lat="45.88998" lon="6.46218">
        <ele>1995.6</ele>
        <time>2015-11-27T14:11:11Z</time>
      </trkpt>
      <trkpt lat="45.89006" lon="6.4618">
        <ele>1983.6</ele>
        <time>2015-11-27T14:11:21Z</time>
      </trkpt>
      <trkpt lat="45.89009" lon="6.4614">
        <ele>1968.6</ele>
        <time>2015-11-27T14:11:31Z</time>
      </trkpt>
      <trkpt lat="45.8901" lon="6.46126">
        <ele>1963.6</ele>
        <time>2015-11-27T14:11:41Z</time>
      </trkpt>
      <trkpt lat="45.89015" lon="6.46093">
        <ele>1951.6</ele>
        <time>2015-11-27T14:11:51Z</time>
      </trkpt>
      <trkpt lat="45.89018" lon="6.46094">
        <ele>1951.6</ele>
        <time>2015-11-27T14:12:01Z</time>
      </trkpt>
      <trkpt lat="45.89017" lon="6.46094">
        <ele>1950.6</ele>
        <time>2015-11-27T14:12:11Z</time>
      </trkpt>
      <trkpt lat="45.89018" lon="6.46093">
        <ele>1949.6</ele>
        <time>2015-11-27T14:12:21Z</time>
      </trkpt>
      <trkpt lat="45.89028" lon="6.46065">
        <ele>1940.6</ele>
        <time>2015-11-27T14:12:31Z</time>
      </trkpt>
      <trkpt lat="45.8902" lon="6.46033">
        <ele>1930.6</ele>
        <time>2015-11-27T14:12:41Z</time>
      </trkpt>
      <trkpt lat="45.89" lon="6.46017">
        <ele>1926.6</ele>
        <time>2015-11-27T14:12:51Z</time>
      </trkpt>
      <trkpt lat="45.89008" lon="6.45985">
        <ele>1915.6</ele>
        <time>2015-11-27T14:13:01Z</time>
      </trkpt>
      <trkpt lat="45.89031" lon="6.45913">
        <ele>1898.6</ele>
        <time>2015-11-27T14:13:11Z</time>
      </trkpt>
      <trkpt lat="45.89031" lon="6.45842">
        <ele>1888.6</ele>
        <time>2015-11-27T14:13:21Z</time>
      </trkpt>
      <trkpt lat="45.8902" lon="6.45801">
        <ele>1880.6</ele>
        <time>2015-11-27T14:13:31Z</time>
      </trkpt>
      <trkpt lat="45.89017" lon="6.4575">
        <ele>1874.6</ele>
        <time>2015-11-27T14:13:41Z</time>
      </trkpt>
      <trkpt lat="45.89023" lon="6.4569">
        <ele>1867.6</ele>
        <time>2015-11-27T14:13:51Z</time>
      </trkpt>
      <trkpt lat="45.89028" lon="6.45638">
        <ele>1854.6</ele>
        <time>2015-11-27T14:14:01Z</time>
      </trkpt>
      <trkpt lat="45.89029" lon="6.45633">
        <ele>1853.6</ele>
        <time>2015-11-27T14:14:11Z</time>
      </trkpt>
      <trkpt lat="45.89021" lon="6.45561">
        <ele>1839.6</ele>
        <time>2015-11-27T14:14:21Z</time>
      </trkpt>
      <trkpt lat="45.89003" lon="6.4548">
        <ele>1827.6</ele>
        <time>2015-11-27T14:14:31Z</time>
      </trkpt>
      <trkpt lat="45.88984" lon="6.45425">
        <ele>1813.6</ele>
        <time>2015-11-27T14:14:41Z</time>
      </trkpt>
      <trkpt lat="45.88966" lon="6.4536">
        <ele>1802.6</ele>
        <time>2015-11-27T14:14:51Z</time>
      </trkpt>
      <trkpt lat="45.88966" lon="6.45357">
        <ele>1803.6</ele>
        <time>2015-11-27T14:15:01Z</time>
      </trkpt>
      <trkpt lat="45.88967" lon="6.45357">
        <ele>1804.6</ele>
        <time>2015-11-27T14:15:11Z</time>
      </trkpt>
      <trkpt lat="45.88949" lon="6.45295">
        <ele>1788.6</ele>
        <time>2015-11-27T14:15:21Z</time>
      </trkpt>
      <trkpt lat="45.8892" lon="6.45203">
        <ele>1771.6</ele>
        <time>2015-11-27T14:15:31Z</time>
      </trkpt>
      <trkpt lat="45.88901" lon="6.45131">
        <ele>1762.6</ele>
        <time>2015-11-27T14:15:41Z</time>
      </trkpt>
      <trkpt lat="45.88894" lon="6.45066">
        <ele>1755.6</ele>
        <time>2015-11-27T14:15:51Z</time>
      </trkpt>
      <trkpt lat="45.88887" lon="6.44988">
        <ele>1745.6</ele>
        <time>2015-11-27T14:16:01Z</time>
      </trkpt>
      <trkpt lat="45.88901" lon="6.44909">
        <ele>1736.6</ele>
        <time>2015-11-27T14:16:11Z</time>
      </trkpt>
      <trkpt lat="45.88925" lon="6.44841">
        <ele>1728.6</ele>
        <time>2015-11-27T14:16:21Z</time>
      </trkpt>
      <trkpt lat="45.88948" lon="6.44771">
        <ele>1719.6</ele>
        <time>2015-11-27T14:16:31Z</time>
      </trkpt>
      <trkpt lat="45.88948" lon="6.44689">
        <ele>1711.6</ele>
        <time>2015-11-27T14:16:41Z</time>
      </trkpt>
      <trkpt lat="45.88981" lon="6.4464">
        <ele>1703.6</ele>
        <time>2015-11-27T14:16:51Z</time>
      </trkpt>
      <trkpt lat="45.8902" lon="6.44621">
        <ele>1696.6</ele>
        <time>2015-11-27T14:17:01Z</time>
      </trkpt>
      <trkpt lat="45.89065" lon="6.44629">
        <ele>1692.6</ele>
        <time>2015-11-27T14:17:11Z</time>
      </trkpt>
      <trkpt lat="45.89112" lon="6.4466">
        <ele>1688.6</ele>
        <time>2015-11-27T14:17:21Z</time>
      </trkpt>
      <trkpt lat="45.8916" lon="6.44695">
        <ele>1680.6</ele>
        <time>2015-11-27T14:17:31Z</time>
      </trkpt>
      <trkpt lat="45.89208" lon="6.44723">
        <ele>1672.6</ele>
        <time>2015-11-27T14:17:41Z</time>
      </trkpt>
      <trkpt lat="45.89256" lon="6.44744">
        <ele>1662.6</ele>
        <time>2015-11-27T14:17:51Z</time>
      </trkpt>
      <trkpt lat="45.89268" lon="6.44743">
        <ele>1658.6</ele>
        <time>2015-11-27T14:18:01Z</time>
      </trkpt>
      <trkpt lat="45.89301" lon="6.44704">
        <ele>1646.6</ele>
        <time>2015-11-27T14:18:11Z</time>
      </trkpt>
      <trkpt lat="45.89311" lon="6.44697">
        <ele>1644.6</ele>
        <time>2015-11-27T14:18:21Z</time>
      </trkpt>
      <trkpt lat="45.89311" lon="6.44695">
        <ele>1644.6</ele>
        <time>2015-11-27T14:18:31Z</time>
      </trkpt>
      <trkpt lat="45.89307" lon="6.44684">
        <ele>1641.6</ele>
        <time>2015-11-27T14:18:41Z</time>
      </trkpt>
      <trkpt lat="45.89304" lon="6.44644">
        <ele>1632.6</ele>
        <time>2015-11-27T14:18:51Z</time>
      </trkpt>
      <trkpt lat="45.89309" lon="6.44632">
        <ele>1626.6</ele>
        <time>2015-11-27T14:19:01Z</time>
      </trkpt>
      <trkpt lat="45.89323" lon="6.44628">
        <ele>1623.6</ele>
        <time>2015-11-27T14:19:11Z</time>
      </trkpt>
      <trkpt lat="45.89322" lon="6.44628">
        <ele>1623.6</ele>
        <time>2015-11-27T14:19:21Z</time>
      </trkpt>
      <trkpt lat="45.8935" lon="6.44651">
        <ele>1616.6</ele>
        <time>2015-11-27T14:19:31Z</time>
      </trkpt>
      <trkpt lat="45.89381" lon="6.4465">
        <ele>1609.6</ele>
        <time>2015-11-27T14:19:41Z</time>
      </trkpt>
      <trkpt lat="45.89421" lon="6.44613">
        <ele>1600.6</ele>
        <time>2015-11-27T14:19:51Z</time>
      </trkpt>
      <trkpt lat="45.89445" lon="6.44571">
        <ele>1593.6</ele>
        <time>2015-11-27T14:20:01Z</time>
      </trkpt>
      <trkpt lat="45.89458" lon="6.44535">
        <ele>1585.6</ele>
        <time>2015-11-27T14:20:11Z</time>
      </trkpt>
      <trkpt lat="45.89493" lon="6.4449">
        <ele>1575.6</ele>
        <time>2015-11-27T14:20:21Z</time>
      </trkpt>
      <trkpt lat="45.89499" lon="6.44485">
        <ele>1574.6</ele>
        <time>2015-11-27T14:20:31Z</time>
      </trkpt>
      <trkpt lat="45.89512" lon="6.44437">
        <ele>1564.6</ele>
        <time>2015-11-27T14:20:41Z</time>
      </trkpt>
      <trkpt lat="45.8953" lon="6.44384">
        <ele>1554.6</ele>
        <time>2015-11-27T14:20:51Z</time>
      </trkpt>
      <trkpt lat="45.89563" lon="6.44353">
        <ele>1545.6</ele>
        <time>2015-11-27T14:21:01Z</time>
      </trkpt>
      <trkpt lat="45.89569" lon="6.4435">
        <ele>1544.6</ele>
        <time>2015-11-27T14:21:11Z</time>
      </trkpt>
      <trkpt lat="45.89592" lon="6.44283">
        <ele>1532.6</ele>
        <time>2015-11-27T14:21:21Z</time>
      </trkpt>
      <trkpt lat="45.89603" lon="6.44245">
        <ele>1529.6</ele>
        <time>2015-11-27T14:21:31Z</time>
      </trkpt>
      <trkpt lat="45.89618" lon="6.44202">
        <ele>1523.6</ele>
        <time>2015-11-27T14:21:41Z</time>
      </trkpt>
      <trkpt lat="45.89615" lon="6.44193">
        <ele>1523.6</ele>
        <time>2015-11-27T14:21:51Z</time>
      </trkpt>
      <trkpt lat="45.89642" lon="6.44138">
        <ele>1512.6</ele>
        <time>2015-11-27T14:22:01Z</time>
      </trkpt>
      <trkpt lat="45.8966" lon="6.44075">
        <ele>1502.6</ele>
        <time>2015-11-27T14:22:11Z</time>
      </trkpt>
      <trkpt lat="45.89662" lon="6.44033">
        <ele>1498.6</ele>
        <time>2015-11-27T14:22:21Z</time>
      </trkpt>
      <trkpt lat="45.89661" lon="6.4403">
        <ele>1498.6</ele>
        <time>2015-11-27T14:22:31Z</time>
      </trkpt>
      <trkpt lat="45.89678" lon="6.44001">
        <ele>1488.6</ele>
        <time>2015-11-27T14:22:41Z</time>
      </trkpt>
      <trkpt lat="45.89682" lon="6.43977">
        <ele>1481.6</ele>
        <time>2015-11-27T14:22:51Z</time>
      </trkpt>
      <trkpt lat="45.89674" lon="6.43965">
        <ele>1479.6</ele>
        <time>2015-11-27T14:23:01Z</time>
      </trkpt>
      <trkpt lat="45.89681" lon="6.43967">
        <ele>1479.6</ele>
        <time>2015-11-27T14:23:11Z</time>
      </trkpt>
      <trkpt lat="45.89685" lon="6.43965">
        <ele>1479.6</ele>
        <time>2015-11-27T14:23:21Z</time>
      </trkpt>
      <trkpt lat="45.89694" lon="6.43925">
        <ele>1466.6</ele>
        <time>2015-11-27T14:23:31Z</time>
      </trkpt>
      <trkpt lat="45.89713" lon="6.43886">
        <ele>1455.6</ele>
        <time>2015-11-27T14:23:41Z</time>
      </trkpt>
      <trkpt lat="45.89729" lon="6.43867">
        <ele>1449.6</ele>
        <time>2015-11-27T14:23:51Z</time>
      </trkpt>
      <trkpt lat="45.89733" lon="6.43865">
        <ele>1447.6</ele>
        <time>2015-11-27T14:24:01Z</time>
      </trkpt>
      <trkpt lat="45.89744" lon="6.43847">
        <ele>1440.6</ele>
        <time>2015-11-27T14:24:11Z</time>
      </trkpt>
      <trkpt lat="45.89751" lon="6.43844">
        <ele>1439.6</ele>
        <time>2015-11-27T14:24:21Z</time>
      </trkpt>
      <trkpt lat="45.89779" lon="6.43842">
        <ele>1435.6</ele>
        <time>2015-11-27T14:24:31Z</time>
      </trkpt>
      <trkpt lat="45.89779" lon="6.43844">
        <ele>1435.6</ele>
        <time>2015-11-27T14:24:41Z</time>
      </trkpt>
      <trkpt lat="45.8978" lon="6.43844">
        <ele>1435.6</ele>
        <time>2015-11-27T14:24:51Z</time>
      </trkpt>
      <trkpt lat="45.89801" lon="6.43796">
        <ele>1420.6</ele>
        <time>2015-11-27T14:25:01Z</time>
      </trkpt>
      <trkpt lat="45.89836" lon="6.43763">
        <ele>1409.6</ele>
        <time>2015-11-27T14:25:11Z</time>
      </trkpt>
      <trkpt lat="45.89842" lon="6.43743">
        <ele>1406.6</ele>
        <time>2015-11-27T14:25:21Z</time>
      </trkpt>
      <trkpt lat="45.89853" lon="6.43713">
        <ele>1397.6</ele>
        <time>2015-11-27T14:25:31Z</time>
      </trkpt>
      <trkpt lat="45.89858" lon="6.43715">
        <ele>1394.6</ele>
        <time>2015-11-27T14:25:41Z</time>
      </trkpt>
      <trkpt lat="45.89871" lon="6.43717">
        <ele>1392.6</ele>
        <time>2015-11-27T14:25:51Z</time>
      </trkpt>
      <trkpt lat="45.89877" lon="6.43711">
        <ele>1389.6</ele>
        <time>2015-11-27T14:26:01Z</time>
      </trkpt>
      <trkpt lat="45.89876" lon="6.43682">
        <ele>1384.6</ele>
        <time>2015-11-27T14:26:11Z</time>
      </trkpt>
      <trkpt lat="45.89879" lon="6.43648">
        <ele>1375.6</ele>
        <time>2015-11-27T14:26:21Z</time>
      </trkpt>
      <trkpt lat="45.89894" lon="6.43616">
        <ele>1364.6</ele>
        <time>2015-11-27T14:26:31Z</time>
      </trkpt>
      <trkpt lat="45.89908" lon="6.43587">
        <ele>1353.6</ele>
        <time>2015-11-27T14:26:41Z</time>
      </trkpt>
      <trkpt lat="45.8991" lon="6.43576">
        <ele>1348.6</ele>
        <time>2015-11-27T14:26:51Z</time>
      </trkpt>
      <trkpt lat="45.89917" lon="6.43572">
        <ele>1345.6</ele>
        <time>2015-11-27T14:27:01Z</time>
      </trkpt>
      <trkpt lat="45.89938" lon="6.43551">
        <ele>1335.6</ele>
        <time>2015-11-27T14:27:11Z</time>
      </trkpt>
      <trkpt lat="45.89947" lon="6.43512">
        <ele>1321.6</ele>
        <time>2015-11-27T14:27:21Z</time>
      </trkpt>
      <trkpt lat="45.89961" lon="6.43483">
        <ele>1311.6</ele>
        <time>2015-11-27T14:27:31Z</time>
      </trkpt>
      <trkpt lat="45.89961" lon="6.43485">
        <ele>1310.6</ele>
        <time>2015-11-27T14:27:41Z</time>
      </trkpt>
      <trkpt lat="45.89962" lon="6.43485">
        <ele>1310.6</ele>
        <time>2015-11-27T14:27:51Z</time>
      </trkpt>
      <trkpt lat="45.89984" lon="6.43477">
        <ele>1304.6</ele>
        <time>2015-11-27T14:28:01Z</time>
      </trkpt>
      <trkpt lat="45.89984" lon="6.43418">
        <ele>1291.6</ele>
        <time>2015-11-27T14:28:11Z</time>
      </trkpt>
      <trkpt lat="45.90003" lon="6.43363">
        <ele>1280.6</ele>
        <time>2015-11-27T14:28:21Z</time>
      </trkpt>
      <trkpt lat="45.90009" lon="6.4331">
        <ele>1264.6</ele>
        <time>2015-11-27T14:28:31Z</time>
      </trkpt>
      <trkpt lat="45.90011" lon="6.4329">
        <ele>1260.6</ele>
        <time>2015-11-27T14:28:41Z</time>
      </trkpt>
      <trkpt lat="45.90029" lon="6.43247">
        <ele>1246.6</ele>
        <time>2015-11-27T14:28:51Z</time>
      </trkpt>
      <trkpt lat="45.90038" lon="6.4324">
        <ele>1243.6</ele>
        <time>2015-11-27T14:29:01Z</time>
      </trkpt>
      <trkpt lat="45.90039" lon="6.4324">
        <ele>1243.6</ele>
        <time>2015-11-27T14:29:11Z</time>
      </trkpt>
      <trkpt lat="45.90061" lon="6.43218">
        <ele>1236.6</ele>
        <time>2015-11-27T14:29:21Z</time>
      </trkpt>
      <trkpt lat="45.90074" lon="6.43161">
        <ele>1221.6</ele>
        <time>2015-11-27T14:29:31Z</time>
      </trkpt>
      <trkpt lat="45.90092" lon="6.4311">
        <ele>1209.6</ele>
        <time>2015-11-27T14:29:41Z</time>
      </trkpt>
      <trkpt lat="45.90114" lon="6.43101">
        <ele>1208.6</ele>
        <time>2015-11-27T14:29:51Z</time>
      </trkpt>
      <trkpt lat="45.90119" lon="6.43098">
        <ele>1206.6</ele>
        <time>2015-11-27T14:30:01Z</time>
      </trkpt>
      <trkpt lat="45.90148" lon="6.43077">
        <ele>1199.6</ele>
        <time>2015-11-27T14:30:11Z</time>
      </trkpt>
      <trkpt lat="45.90166" lon="6.43036">
        <ele>1189.6</ele>
        <time>2015-11-27T14:30:21Z</time>
      </trkpt>
      <trkpt lat="45.9018" lon="6.42987">
        <ele>1180.6</ele>
        <time>2015-11-27T14:30:31Z</time>
      </trkpt>
      <trkpt lat="45.90211" lon="6.42938">
        <ele>1169.6</ele>
        <time>2015-11-27T14:30:41Z</time>
      </trkpt>
      <trkpt lat="45.9022" lon="6.42932">
        <ele>1167.6</ele>
        <time>2015-11-27T14:30:51Z</time>
      </trkpt>
      <trkpt lat="45.9022" lon="6.42931">
        <ele>1165.6</ele>
        <time>2015-11-27T14:31:01Z</time>
      </trkpt>
      <trkpt lat="45.90233" lon="6.42915">
        <ele>1161.6</ele>
        <time>2015-11-27T14:31:11Z</time>
      </trkpt>
      <trkpt lat="45.90256" lon="6.42865">
        <ele>1150.6</ele>
        <time>2015-11-27T14:31:21Z</time>
      </trkpt>
      <trkpt lat="45.90259" lon="6.42827">
        <ele>1146.6</ele>
        <time>2015-11-27T14:31:31Z</time>
      </trkpt>
      <trkpt lat="45.9026" lon="6.42829">
        <ele>1145.6</ele>
        <time>2015-11-27T14:31:41Z</time>
      </trkpt>
      <trkpt lat="45.90283" lon="6.42792">
        <ele>1136.6</ele>
        <time>2015-11-27T14:31:51Z</time>
      </trkpt>
      <trkpt lat="45.90282" lon="6.42756">
        <ele>1131.6</ele>
        <time>2015-11-27T14:32:01Z</time>
      </trkpt>
      <trkpt lat="45.9028" lon="6.42727">
        <ele>1129.6</ele>
        <time>2015-11-27T14:32:11Z</time>
      </trkpt>
      <trkpt lat="45.90267" lon="6.4269">
        <ele>1122.6</ele>
        <time>2015-11-27T14:32:21Z</time>
      </trkpt>
      <trkpt lat="45.9027" lon="6.4265">
        <ele>1112.6</ele>
        <time>2015-11-27T14:32:31Z</time>
      </trkpt>
      <trkpt lat="45.90282" lon="6.42638">
        <ele>1107.6</ele>
        <time>2015-11-27T14:32:41Z</time>
      </trkpt>
      <trkpt lat="45.90307" lon="6.42643">
        <ele>1105.6</ele>
        <time>2015-11-27T14:32:51Z</time>
      </trkpt>
      <trkpt lat="45.90305" lon="6.42644">
        <ele>1105.6</ele>
        <time>2015-11-27T14:33:01Z</time>
      </trkpt>
      <trkpt lat="45.90305" lon="6.42645">
        <ele>1105.6</ele>
        <time>2015-11-27T14:33:11Z</time>
      </trkpt>
      <trkpt lat="45.90305" lon="6.42644">
        <ele>1104.6</ele>
        <time>2015-11-27T14:33:21Z</time>
      </trkpt>
      <trkpt lat="45.90305" lon="6.42643">
        <ele>1104.6</ele>
        <time>2015-11-27T14:33:31Z</time>
      </trkpt>
      <trkpt lat="45.90307" lon="6.42646">
        <ele>1103.6</ele>
        <time>2015-11-27T14:33:41Z</time>
      </trkpt>
      <trkpt lat="45.90316" lon="6.42653">
        <ele>1109.6</ele>
        <time>2015-11-27T14:33:51Z</time>
      </trkpt>
      <trkpt lat="45.9032" lon="6.42655">
        <ele>1109.6</ele>
        <time>2015-11-27T14:34:01Z</time>
      </trkpt>
      <trkpt lat="45.90327" lon="6.4265">
        <ele>1103.6</ele>
        <time>2015-11-27T14:34:11Z</time>
      </trkpt>
      <trkpt lat="45.90318" lon="6.42635">
        <ele>1101.6</ele>
        <time>2015-11-27T14:34:21Z</time>
      </trkpt>
      <trkpt lat="45.90325" lon="6.42628">
        <ele>1105.6</ele>
        <time>2015-11-27T14:34:31Z</time>
      </trkpt>
      <trkpt lat="45.90337" lon="6.42635">
        <ele>1102.6</ele>
        <time>2015-11-27T14:34:41Z</time>
      </trkpt>
      <trkpt lat="45.9035" lon="6.42642">
        <ele>1102.6</ele>
        <time>2015-11-27T14:34:51Z</time>
      </trkpt>
      <trkpt lat="45.90358" lon="6.42641">
        <ele>1101.6</ele>
        <time>2015-11-27T14:35:01Z</time>
      </trkpt>
      <trkpt lat="45.90359" lon="6.42641">
        <ele>1101.6</ele>
        <time>2015-11-27T14:35:11Z</time>
      </trkpt>
      <trkpt lat="45.9036" lon="6.4264">
        <ele>1100.6</ele>
        <time>2015-11-27T14:35:21Z</time>
      </trkpt>
      <trkpt lat="45.90358" lon="6.42641">
        <ele>1099.6</ele>
        <time>2015-11-27T14:35:31Z</time>
      </trkpt>
      <trkpt lat="45.90358" lon="6.42639">
        <ele>1097.6</ele>
        <time>2015-11-27T14:35:41Z</time>
      </trkpt>
      <trkpt lat="45.90358" lon="6.4264">
        <ele>1097.6</ele>
        <time>2015-11-27T14:35:51Z</time>
      </trkpt>
      <trkpt lat="45.90358" lon="6.42641">
        <ele>1098.6</ele>
        <time>2015-11-27T14:36:01Z</time>
      </trkpt>
      <trkpt lat="45.90358" lon="6.42641">
        <ele>1098.6</ele>
        <time>2015-11-27T14:36:11Z</time>
      </trkpt>
      <trkpt lat="45.90358" lon="6.42641">
        <ele>1098.6</ele>
        <time>2015-11-27T14:36:21Z</time>
      </trkpt>
      <trkpt lat="45.90358" lon="6.42641">
        <ele>1098.6</ele>
        <time>2015-11-27T14:36:31Z</time>
      </trkpt>
      <trkpt lat="45.90358" lon="6.42642">
        <ele>1098.6</ele>
        <time>2015-11-27T14:36:41Z</time>
      </trkpt>
      <trkpt lat="45.90358" lon="6.42642">
        <ele>1098.6</ele>
        <time>2015-11-27T14:36:51Z</time>
      </trkpt>
      <trkpt lat="45.90358" lon="6.42642">
        <ele>1098.6</ele>
        <time>2015-11-27T14:37:01Z</time>
      </trkpt>
      <trkpt lat="45.90358" lon="6.42642">
        <ele>1098.6</ele>
        <time>2015-11-27T14:37:11Z</time>
      </trkpt>
      <trkpt lat="45.90358" lon="6.42642">
        <ele>1098.6</ele>
        <time>2015-11-27T14:37:21Z</time>
      </trkpt>
      <trkpt lat="45.90358" lon="6.42642">
        <ele>1098.6</ele>
        <time>2015-11-27T14:37:31Z</time>
      </trkpt>
      <trkpt lat="45.90358" lon="6.42642">
        <ele>1098.6</ele>
        <time>2015-11-27T14:37:41Z</time>
      </trkpt>
      <trkpt lat="45.90358" lon="6.42642">
        <ele>1098.6</ele>
        <time>2015-11-27T14:37:51Z</time>
      </trkpt>
      <trkpt lat="45.90358" lon="6.4264">
        <ele>1097.6</ele>
        <time>2015-11-27T14:38:00Z</time>
      </trkpt>
    </trkseg>
  </trk>
</gpx>